<?xml version="1.0" encoding="UTF-8" standalone="no" ?>
<gpx xmlns="http://www.topografix.com/GPX/1/1" xmlns:xsi="http://www.w3.org/2001/XMLSchema-instance" xsi:schemaLocation="http://www.topografix.com/GPX/1/1 http://www.topografix.com/GPX/1/1/gpx.xsd" version="1.1" creator="VisuGPX - https://www.visugpx.com">
  <metadata>
    <name>Alco-st-gely</name>
  </metadata>
  <trk>
    <name><![CDATA[Alco-st-gely_1]]></name>
    <extensions>
      <line xmlns="http://www.topografix.com/GPX/gpx_style/0/2">
        <color>0000FF</color>
        <width>4</width>
      </line>
    </extensions>
    <trkseg>
      <trkpt lat="43.62465" lon="3.83655">
        <ele>70.7</ele>
        <time>2021-12-19T10:20:25Z</time>
      </trkpt>
      <trkpt lat="43.62504" lon="3.83613">
        <ele>75.6</ele>
        <time>2021-12-19T10:20:35Z</time>
      </trkpt>
      <trkpt lat="43.6253" lon="3.8361">
        <ele>74.5</ele>
        <time>2021-12-19T10:20:45Z</time>
      </trkpt>
      <trkpt lat="43.62554" lon="3.8362">
        <ele>71.2</ele>
        <time>2021-12-19T10:21:05Z</time>
      </trkpt>
      <trkpt lat="43.62576" lon="3.83608">
        <ele>73.9</ele>
        <time>2021-12-19T10:21:15Z</time>
      </trkpt>
      <trkpt lat="43.62579" lon="3.83641">
        <ele>73.5</ele>
        <time>2021-12-19T10:21:25Z</time>
      </trkpt>
      <trkpt lat="43.62583" lon="3.83683">
        <ele>71.8</ele>
        <time>2021-12-19T10:21:35Z</time>
      </trkpt>
      <trkpt lat="43.62612" lon="3.83724">
        <ele>70.7</ele>
        <time>2021-12-19T10:21:45Z</time>
      </trkpt>
      <trkpt lat="43.62644" lon="3.83767">
        <ele>68.9</ele>
        <time>2021-12-19T10:21:55Z</time>
      </trkpt>
      <trkpt lat="43.62672" lon="3.83803">
        <ele>67</ele>
        <time>2021-12-19T10:22:05Z</time>
      </trkpt>
      <trkpt lat="43.627" lon="3.83866">
        <ele>63.8</ele>
        <time>2021-12-19T10:22:15Z</time>
      </trkpt>
      <trkpt lat="43.62735" lon="3.83932">
        <ele>61.9</ele>
        <time>2021-12-19T10:22:25Z</time>
      </trkpt>
      <trkpt lat="43.62767" lon="3.83974">
        <ele>61.1</ele>
        <time>2021-12-19T10:22:35Z</time>
      </trkpt>
      <trkpt lat="43.62804" lon="3.84012">
        <ele>60.6</ele>
        <time>2021-12-19T10:22:45Z</time>
      </trkpt>
      <trkpt lat="43.62836" lon="3.84016">
        <ele>60.2</ele>
        <time>2021-12-19T10:22:55Z</time>
      </trkpt>
      <trkpt lat="43.62868" lon="3.84014">
        <ele>59.5</ele>
        <time>2021-12-19T10:23:05Z</time>
      </trkpt>
      <trkpt lat="43.62891" lon="3.84007">
        <ele>60.2</ele>
        <time>2021-12-19T10:23:15Z</time>
      </trkpt>
      <trkpt lat="43.62918" lon="3.83999">
        <ele>60</ele>
        <time>2021-12-19T10:23:25Z</time>
      </trkpt>
      <trkpt lat="43.62951" lon="3.83987">
        <ele>60.5</ele>
        <time>2021-12-19T10:23:35Z</time>
      </trkpt>
      <trkpt lat="43.62975" lon="3.83977">
        <ele>60.7</ele>
        <time>2021-12-19T10:23:45Z</time>
      </trkpt>
      <trkpt lat="43.62985" lon="3.83969">
        <ele>60.7</ele>
        <time>2021-12-19T10:23:55Z</time>
      </trkpt>
      <trkpt lat="43.63" lon="3.83962">
        <ele>60.4</ele>
        <time>2021-12-19T10:24:05Z</time>
      </trkpt>
      <trkpt lat="43.63026" lon="3.83951">
        <ele>59.8</ele>
        <time>2021-12-19T10:24:15Z</time>
      </trkpt>
      <trkpt lat="43.63055" lon="3.83926">
        <ele>60</ele>
        <time>2021-12-19T10:24:25Z</time>
      </trkpt>
      <trkpt lat="43.63077" lon="3.83891">
        <ele>60</ele>
        <time>2021-12-19T10:24:35Z</time>
      </trkpt>
      <trkpt lat="43.63102" lon="3.83852">
        <ele>60.4</ele>
        <time>2021-12-19T10:24:45Z</time>
      </trkpt>
      <trkpt lat="43.63126" lon="3.83815">
        <ele>60.7</ele>
        <time>2021-12-19T10:24:55Z</time>
      </trkpt>
      <trkpt lat="43.63161" lon="3.83802">
        <ele>59.7</ele>
        <time>2021-12-19T10:25:05Z</time>
      </trkpt>
      <trkpt lat="43.63185" lon="3.83772">
        <ele>61.4</ele>
        <time>2021-12-19T10:25:15Z</time>
      </trkpt>
      <trkpt lat="43.63211" lon="3.8374">
        <ele>60.8</ele>
        <time>2021-12-19T10:25:25Z</time>
      </trkpt>
      <trkpt lat="43.63231" lon="3.83697">
        <ele>61.3</ele>
        <time>2021-12-19T10:25:35Z</time>
      </trkpt>
      <trkpt lat="43.63244" lon="3.83649">
        <ele>60.8</ele>
        <time>2021-12-19T10:25:45Z</time>
      </trkpt>
      <trkpt lat="43.63265" lon="3.83613">
        <ele>61.4</ele>
        <time>2021-12-19T10:25:55Z</time>
      </trkpt>
      <trkpt lat="43.63284" lon="3.8358">
        <ele>61.8</ele>
        <time>2021-12-19T10:26:05Z</time>
      </trkpt>
      <trkpt lat="43.63303" lon="3.83542">
        <ele>61.5</ele>
        <time>2021-12-19T10:26:15Z</time>
      </trkpt>
      <trkpt lat="43.63314" lon="3.83525">
        <ele>62.3</ele>
        <time>2021-12-19T10:26:25Z</time>
      </trkpt>
      <trkpt lat="43.63322" lon="3.83526">
        <ele>62.5</ele>
        <time>2021-12-19T10:26:35Z</time>
      </trkpt>
      <trkpt lat="43.6334" lon="3.83532">
        <ele>63</ele>
        <time>2021-12-19T10:26:45Z</time>
      </trkpt>
      <trkpt lat="43.63362" lon="3.83514">
        <ele>63.5</ele>
        <time>2021-12-19T10:26:55Z</time>
      </trkpt>
      <trkpt lat="43.63377" lon="3.83477">
        <ele>63.3</ele>
        <time>2021-12-19T10:27:05Z</time>
      </trkpt>
      <trkpt lat="43.63393" lon="3.83442">
        <ele>65.2</ele>
        <time>2021-12-19T10:27:15Z</time>
      </trkpt>
      <trkpt lat="43.63404" lon="3.8341">
        <ele>66.9</ele>
        <time>2021-12-19T10:27:25Z</time>
      </trkpt>
      <trkpt lat="43.63419" lon="3.83379">
        <ele>68</ele>
        <time>2021-12-19T10:27:35Z</time>
      </trkpt>
      <trkpt lat="43.63442" lon="3.83348">
        <ele>68</ele>
        <time>2021-12-19T10:27:55Z</time>
      </trkpt>
      <trkpt lat="43.6347" lon="3.83314">
        <ele>68.9</ele>
        <time>2021-12-19T10:28:15Z</time>
      </trkpt>
      <trkpt lat="43.63497" lon="3.83276">
        <ele>68.9</ele>
        <time>2021-12-19T10:28:25Z</time>
      </trkpt>
      <trkpt lat="43.63524" lon="3.83246">
        <ele>69.7</ele>
        <time>2021-12-19T10:28:35Z</time>
      </trkpt>
      <trkpt lat="43.63551" lon="3.83218">
        <ele>70.7</ele>
        <time>2021-12-19T10:28:45Z</time>
      </trkpt>
      <trkpt lat="43.63578" lon="3.83188">
        <ele>70.7</ele>
        <time>2021-12-19T10:28:55Z</time>
      </trkpt>
      <trkpt lat="43.63605" lon="3.83166">
        <ele>71.8</ele>
        <time>2021-12-19T10:29:05Z</time>
      </trkpt>
      <trkpt lat="43.63635" lon="3.83142">
        <ele>71.1</ele>
        <time>2021-12-19T10:29:15Z</time>
      </trkpt>
      <trkpt lat="43.63673" lon="3.8312">
        <ele>72.3</ele>
        <time>2021-12-19T10:29:25Z</time>
      </trkpt>
      <trkpt lat="43.63707" lon="3.83106">
        <ele>73.3</ele>
        <time>2021-12-19T10:29:35Z</time>
      </trkpt>
      <trkpt lat="43.63741" lon="3.83089">
        <ele>73.2</ele>
        <time>2021-12-19T10:29:45Z</time>
      </trkpt>
      <trkpt lat="43.63775" lon="3.83058">
        <ele>72.8</ele>
        <time>2021-12-19T10:29:55Z</time>
      </trkpt>
      <trkpt lat="43.63807" lon="3.83028">
        <ele>74</ele>
        <time>2021-12-19T10:30:05Z</time>
      </trkpt>
      <trkpt lat="43.63836" lon="3.82995">
        <ele>74.1</ele>
        <time>2021-12-19T10:30:15Z</time>
      </trkpt>
      <trkpt lat="43.63863" lon="3.82961">
        <ele>75.1</ele>
        <time>2021-12-19T10:30:25Z</time>
      </trkpt>
      <trkpt lat="43.63887" lon="3.82922">
        <ele>76</ele>
        <time>2021-12-19T10:30:35Z</time>
      </trkpt>
      <trkpt lat="43.63904" lon="3.82888">
        <ele>77</ele>
        <time>2021-12-19T10:30:45Z</time>
      </trkpt>
      <trkpt lat="43.63918" lon="3.82858">
        <ele>77.2</ele>
        <time>2021-12-19T10:30:55Z</time>
      </trkpt>
      <trkpt lat="43.63925" lon="3.82836">
        <ele>78.2</ele>
        <time>2021-12-19T10:31:05Z</time>
      </trkpt>
      <trkpt lat="43.6394" lon="3.8282">
        <ele>78.9</ele>
        <time>2021-12-19T10:31:15Z</time>
      </trkpt>
      <trkpt lat="43.63958" lon="3.82811">
        <ele>79.5</ele>
        <time>2021-12-19T10:31:25Z</time>
      </trkpt>
      <trkpt lat="43.63981" lon="3.82799">
        <ele>80.7</ele>
        <time>2021-12-19T10:31:35Z</time>
      </trkpt>
      <trkpt lat="43.64007" lon="3.82794">
        <ele>82.3</ele>
        <time>2021-12-19T10:31:45Z</time>
      </trkpt>
      <trkpt lat="43.64022" lon="3.8277">
        <ele>83.7</ele>
        <time>2021-12-19T10:31:55Z</time>
      </trkpt>
      <trkpt lat="43.64034" lon="3.82744">
        <ele>85.2</ele>
        <time>2021-12-19T10:32:05Z</time>
      </trkpt>
      <trkpt lat="43.64049" lon="3.82722">
        <ele>86</ele>
        <time>2021-12-19T10:32:15Z</time>
      </trkpt>
      <trkpt lat="43.64059" lon="3.82696">
        <ele>87.9</ele>
        <time>2021-12-19T10:32:25Z</time>
      </trkpt>
      <trkpt lat="43.6407" lon="3.82669">
        <ele>89.4</ele>
        <time>2021-12-19T10:32:35Z</time>
      </trkpt>
      <trkpt lat="43.6408" lon="3.82644">
        <ele>90.8</ele>
        <time>2021-12-19T10:32:45Z</time>
      </trkpt>
      <trkpt lat="43.64086" lon="3.8262">
        <ele>92.4</ele>
        <time>2021-12-19T10:32:55Z</time>
      </trkpt>
      <trkpt lat="43.64094" lon="3.82591">
        <ele>93.7</ele>
        <time>2021-12-19T10:33:05Z</time>
      </trkpt>
      <trkpt lat="43.64106" lon="3.82562">
        <ele>94.6</ele>
        <time>2021-12-19T10:33:15Z</time>
      </trkpt>
      <trkpt lat="43.64115" lon="3.82533">
        <ele>95.8</ele>
        <time>2021-12-19T10:33:25Z</time>
      </trkpt>
      <trkpt lat="43.64125" lon="3.8251">
        <ele>96.6</ele>
        <time>2021-12-19T10:33:35Z</time>
      </trkpt>
      <trkpt lat="43.64137" lon="3.82484">
        <ele>98.1</ele>
        <time>2021-12-19T10:33:45Z</time>
      </trkpt>
      <trkpt lat="43.64148" lon="3.82453">
        <ele>99.2</ele>
        <time>2021-12-19T10:33:55Z</time>
      </trkpt>
      <trkpt lat="43.64152" lon="3.82434">
        <ele>99.8</ele>
        <time>2021-12-19T10:34:05Z</time>
      </trkpt>
      <trkpt lat="43.64157" lon="3.82408">
        <ele>100.9</ele>
        <time>2021-12-19T10:34:15Z</time>
      </trkpt>
      <trkpt lat="43.64167" lon="3.82382">
        <ele>102.2</ele>
        <time>2021-12-19T10:34:25Z</time>
      </trkpt>
      <trkpt lat="43.64178" lon="3.82366">
        <ele>102.8</ele>
        <time>2021-12-19T10:34:35Z</time>
      </trkpt>
      <trkpt lat="43.64186" lon="3.82338">
        <ele>102.7</ele>
        <time>2021-12-19T10:34:45Z</time>
      </trkpt>
      <trkpt lat="43.64206" lon="3.82315">
        <ele>102.1</ele>
        <time>2021-12-19T10:34:55Z</time>
      </trkpt>
      <trkpt lat="43.64235" lon="3.82308">
        <ele>101</ele>
        <time>2021-12-19T10:35:05Z</time>
      </trkpt>
      <trkpt lat="43.64261" lon="3.82307">
        <ele>99.6</ele>
        <time>2021-12-19T10:35:15Z</time>
      </trkpt>
      <trkpt lat="43.6429" lon="3.82308">
        <ele>98.5</ele>
        <time>2021-12-19T10:35:25Z</time>
      </trkpt>
      <trkpt lat="43.64316" lon="3.82298">
        <ele>98.4</ele>
        <time>2021-12-19T10:35:35Z</time>
      </trkpt>
      <trkpt lat="43.64341" lon="3.8229">
        <ele>98.3</ele>
        <time>2021-12-19T10:35:45Z</time>
      </trkpt>
      <trkpt lat="43.64354" lon="3.82277">
        <ele>98.3</ele>
        <time>2021-12-19T10:35:55Z</time>
      </trkpt>
      <trkpt lat="43.64371" lon="3.82261">
        <ele>98</ele>
        <time>2021-12-19T10:38:05Z</time>
      </trkpt>
      <trkpt lat="43.64396" lon="3.82256">
        <ele>98.1</ele>
        <time>2021-12-19T10:38:25Z</time>
      </trkpt>
      <trkpt lat="43.64414" lon="3.82241">
        <ele>98</ele>
        <time>2021-12-19T10:38:35Z</time>
      </trkpt>
      <trkpt lat="43.64431" lon="3.82253">
        <ele>98.1</ele>
        <time>2021-12-19T10:38:45Z</time>
      </trkpt>
      <trkpt lat="43.64452" lon="3.82272">
        <ele>98</ele>
        <time>2021-12-19T10:38:55Z</time>
      </trkpt>
      <trkpt lat="43.64468" lon="3.82285">
        <ele>98</ele>
        <time>2021-12-19T10:39:05Z</time>
      </trkpt>
      <trkpt lat="43.64493" lon="3.82289">
        <ele>98.6</ele>
        <time>2021-12-19T10:39:15Z</time>
      </trkpt>
      <trkpt lat="43.6452" lon="3.82306">
        <ele>100.7</ele>
        <time>2021-12-19T10:39:25Z</time>
      </trkpt>
      <trkpt lat="43.64554" lon="3.82312">
        <ele>101.5</ele>
        <time>2021-12-19T10:39:35Z</time>
      </trkpt>
      <trkpt lat="43.64582" lon="3.82324">
        <ele>100.7</ele>
        <time>2021-12-19T10:39:45Z</time>
      </trkpt>
      <trkpt lat="43.64613" lon="3.82354">
        <ele>100</ele>
        <time>2021-12-19T10:39:55Z</time>
      </trkpt>
      <trkpt lat="43.64646" lon="3.82378">
        <ele>100</ele>
        <time>2021-12-19T10:40:05Z</time>
      </trkpt>
      <trkpt lat="43.64681" lon="3.82403">
        <ele>100.8</ele>
        <time>2021-12-19T10:40:15Z</time>
      </trkpt>
      <trkpt lat="43.64714" lon="3.82423">
        <ele>101.2</ele>
        <time>2021-12-19T10:40:25Z</time>
      </trkpt>
      <trkpt lat="43.6475" lon="3.82431">
        <ele>102.5</ele>
        <time>2021-12-19T10:40:35Z</time>
      </trkpt>
      <trkpt lat="43.64781" lon="3.82426">
        <ele>103.5</ele>
        <time>2021-12-19T10:40:45Z</time>
      </trkpt>
      <trkpt lat="43.64806" lon="3.8242">
        <ele>105</ele>
        <time>2021-12-19T10:40:55Z</time>
      </trkpt>
      <trkpt lat="43.64834" lon="3.82417">
        <ele>105.1</ele>
        <time>2021-12-19T10:41:05Z</time>
      </trkpt>
      <trkpt lat="43.64861" lon="3.82413">
        <ele>106.9</ele>
        <time>2021-12-19T10:41:15Z</time>
      </trkpt>
      <trkpt lat="43.64884" lon="3.8243">
        <ele>107.9</ele>
        <time>2021-12-19T10:41:25Z</time>
      </trkpt>
      <trkpt lat="43.64901" lon="3.82453">
        <ele>109.3</ele>
        <time>2021-12-19T10:41:35Z</time>
      </trkpt>
      <trkpt lat="43.64924" lon="3.82461">
        <ele>109.9</ele>
        <time>2021-12-19T10:41:45Z</time>
      </trkpt>
      <trkpt lat="43.64946" lon="3.82445">
        <ele>110.2</ele>
        <time>2021-12-19T10:41:55Z</time>
      </trkpt>
      <trkpt lat="43.64972" lon="3.82448">
        <ele>113</ele>
        <time>2021-12-19T10:42:05Z</time>
      </trkpt>
      <trkpt lat="43.64991" lon="3.82448">
        <ele>115</ele>
        <time>2021-12-19T10:42:15Z</time>
      </trkpt>
      <trkpt lat="43.65008" lon="3.82423">
        <ele>116</ele>
        <time>2021-12-19T10:42:25Z</time>
      </trkpt>
      <trkpt lat="43.6503" lon="3.82412">
        <ele>117.4</ele>
        <time>2021-12-19T10:42:35Z</time>
      </trkpt>
      <trkpt lat="43.65056" lon="3.82406">
        <ele>118.3</ele>
        <time>2021-12-19T10:42:45Z</time>
      </trkpt>
      <trkpt lat="43.65069" lon="3.82385">
        <ele>118.7</ele>
        <time>2021-12-19T10:42:55Z</time>
      </trkpt>
      <trkpt lat="43.6509" lon="3.82354">
        <ele>118.2</ele>
        <time>2021-12-19T10:43:05Z</time>
      </trkpt>
      <trkpt lat="43.65118" lon="3.82361">
        <ele>119.5</ele>
        <time>2021-12-19T10:43:15Z</time>
      </trkpt>
      <trkpt lat="43.65141" lon="3.82388">
        <ele>120.6</ele>
        <time>2021-12-19T10:43:25Z</time>
      </trkpt>
      <trkpt lat="43.65157" lon="3.82423">
        <ele>119</ele>
        <time>2021-12-19T10:43:35Z</time>
      </trkpt>
      <trkpt lat="43.65158" lon="3.82475">
        <ele>117.6</ele>
        <time>2021-12-19T10:43:45Z</time>
      </trkpt>
      <trkpt lat="43.65169" lon="3.82523">
        <ele>117.5</ele>
        <time>2021-12-19T10:43:55Z</time>
      </trkpt>
      <trkpt lat="43.65196" lon="3.82562">
        <ele>117.3</ele>
        <time>2021-12-19T10:44:05Z</time>
      </trkpt>
      <trkpt lat="43.65219" lon="3.82596">
        <ele>118.5</ele>
        <time>2021-12-19T10:44:15Z</time>
      </trkpt>
      <trkpt lat="43.65241" lon="3.82615">
        <ele>120.4</ele>
        <time>2021-12-19T10:44:25Z</time>
      </trkpt>
      <trkpt lat="43.65255" lon="3.8263">
        <ele>121.7</ele>
        <time>2021-12-19T10:44:35Z</time>
      </trkpt>
      <trkpt lat="43.6527" lon="3.82653">
        <ele>122.8</ele>
        <time>2021-12-19T10:44:45Z</time>
      </trkpt>
      <trkpt lat="43.65293" lon="3.82671">
        <ele>123.5</ele>
        <time>2021-12-19T10:44:55Z</time>
      </trkpt>
      <trkpt lat="43.65318" lon="3.82692">
        <ele>123.8</ele>
        <time>2021-12-19T10:45:05Z</time>
      </trkpt>
      <trkpt lat="43.65343" lon="3.82708">
        <ele>123.8</ele>
        <time>2021-12-19T10:45:15Z</time>
      </trkpt>
      <trkpt lat="43.6537" lon="3.82721">
        <ele>125.2</ele>
        <time>2021-12-19T10:45:25Z</time>
      </trkpt>
      <trkpt lat="43.65398" lon="3.82737">
        <ele>125.3</ele>
        <time>2021-12-19T10:45:35Z</time>
      </trkpt>
      <trkpt lat="43.65425" lon="3.8276">
        <ele>125.2</ele>
        <time>2021-12-19T10:45:45Z</time>
      </trkpt>
      <trkpt lat="43.65454" lon="3.82772">
        <ele>125.1</ele>
        <time>2021-12-19T10:45:55Z</time>
      </trkpt>
      <trkpt lat="43.65474" lon="3.82792">
        <ele>124.7</ele>
        <time>2021-12-19T10:46:05Z</time>
      </trkpt>
      <trkpt lat="43.65496" lon="3.82823">
        <ele>123.2</ele>
        <time>2021-12-19T10:46:15Z</time>
      </trkpt>
      <trkpt lat="43.65511" lon="3.82835">
        <ele>122.2</ele>
        <time>2021-12-19T10:46:25Z</time>
      </trkpt>
      <trkpt lat="43.65529" lon="3.82832">
        <ele>118.6</ele>
        <time>2021-12-19T10:46:35Z</time>
      </trkpt>
      <trkpt lat="43.6555" lon="3.82842">
        <ele>115.4</ele>
        <time>2021-12-19T10:46:45Z</time>
      </trkpt>
      <trkpt lat="43.65574" lon="3.82863">
        <ele>113.8</ele>
        <time>2021-12-19T10:46:55Z</time>
      </trkpt>
      <trkpt lat="43.65607" lon="3.82881">
        <ele>107.8</ele>
        <time>2021-12-19T10:47:05Z</time>
      </trkpt>
      <trkpt lat="43.65647" lon="3.82902">
        <ele>104</ele>
        <time>2021-12-19T10:47:15Z</time>
      </trkpt>
      <trkpt lat="43.65693" lon="3.82921">
        <ele>97.2</ele>
        <time>2021-12-19T10:47:25Z</time>
      </trkpt>
      <trkpt lat="43.65728" lon="3.82922">
        <ele>93.4</ele>
        <time>2021-12-19T10:47:35Z</time>
      </trkpt>
      <trkpt lat="43.65763" lon="3.82986">
        <ele>90.9</ele>
        <time>2021-12-19T10:47:45Z</time>
      </trkpt>
      <trkpt lat="43.65788" lon="3.83039">
        <ele>89.7</ele>
        <time>2021-12-19T10:47:55Z</time>
      </trkpt>
      <trkpt lat="43.65816" lon="3.83012">
        <ele>90</ele>
        <time>2021-12-19T10:48:05Z</time>
      </trkpt>
      <trkpt lat="43.6583" lon="3.82981">
        <ele>90.2</ele>
        <time>2021-12-19T10:48:15Z</time>
      </trkpt>
      <trkpt lat="43.65828" lon="3.82921">
        <ele>89.8</ele>
        <time>2021-12-19T10:48:25Z</time>
      </trkpt>
      <trkpt lat="43.6583" lon="3.82868">
        <ele>89.9</ele>
        <time>2021-12-19T10:48:35Z</time>
      </trkpt>
      <trkpt lat="43.65831" lon="3.82813">
        <ele>90</ele>
        <time>2021-12-19T10:48:45Z</time>
      </trkpt>
      <trkpt lat="43.65832" lon="3.82758">
        <ele>90.7</ele>
        <time>2021-12-19T10:48:55Z</time>
      </trkpt>
      <trkpt lat="43.65832" lon="3.82704">
        <ele>91</ele>
        <time>2021-12-19T10:49:05Z</time>
      </trkpt>
      <trkpt lat="43.65832" lon="3.82649">
        <ele>91.4</ele>
        <time>2021-12-19T10:49:15Z</time>
      </trkpt>
      <trkpt lat="43.65833" lon="3.82587">
        <ele>89.2</ele>
        <time>2021-12-19T10:49:25Z</time>
      </trkpt>
      <trkpt lat="43.65832" lon="3.82515">
        <ele>85.1</ele>
        <time>2021-12-19T10:49:35Z</time>
      </trkpt>
      <trkpt lat="43.6583" lon="3.82436">
        <ele>83.7</ele>
        <time>2021-12-19T10:49:45Z</time>
      </trkpt>
      <trkpt lat="43.6583" lon="3.82356">
        <ele>83.1</ele>
        <time>2021-12-19T10:49:55Z</time>
      </trkpt>
      <trkpt lat="43.6583" lon="3.82276">
        <ele>82.9</ele>
        <time>2021-12-19T10:50:05Z</time>
      </trkpt>
      <trkpt lat="43.65826" lon="3.82211">
        <ele>82.3</ele>
        <time>2021-12-19T10:50:15Z</time>
      </trkpt>
      <trkpt lat="43.65818" lon="3.82141">
        <ele>82.5</ele>
        <time>2021-12-19T10:50:25Z</time>
      </trkpt>
      <trkpt lat="43.65808" lon="3.82078">
        <ele>82.7</ele>
        <time>2021-12-19T10:50:35Z</time>
      </trkpt>
      <trkpt lat="43.65814" lon="3.82049">
        <ele>82.1</ele>
        <time>2021-12-19T10:50:45Z</time>
      </trkpt>
      <trkpt lat="43.65842" lon="3.82038">
        <ele>82.6</ele>
        <time>2021-12-19T10:50:55Z</time>
      </trkpt>
      <trkpt lat="43.65872" lon="3.82045">
        <ele>82.6</ele>
        <time>2021-12-19T10:51:05Z</time>
      </trkpt>
      <trkpt lat="43.659" lon="3.8208">
        <ele>83.4</ele>
        <time>2021-12-19T10:51:15Z</time>
      </trkpt>
      <trkpt lat="43.65931" lon="3.82062">
        <ele>83.6</ele>
        <time>2021-12-19T10:51:25Z</time>
      </trkpt>
      <trkpt lat="43.6596" lon="3.82033">
        <ele>84.6</ele>
        <time>2021-12-19T10:51:35Z</time>
      </trkpt>
      <trkpt lat="43.65989" lon="3.82008">
        <ele>85.6</ele>
        <time>2021-12-19T10:51:45Z</time>
      </trkpt>
      <trkpt lat="43.66016" lon="3.81985">
        <ele>86.6</ele>
        <time>2021-12-19T10:51:55Z</time>
      </trkpt>
      <trkpt lat="43.66041" lon="3.81964">
        <ele>88.1</ele>
        <time>2021-12-19T10:52:05Z</time>
      </trkpt>
      <trkpt lat="43.66064" lon="3.81944">
        <ele>89.6</ele>
        <time>2021-12-19T10:52:15Z</time>
      </trkpt>
      <trkpt lat="43.66087" lon="3.81924">
        <ele>91.4</ele>
        <time>2021-12-19T10:52:25Z</time>
      </trkpt>
      <trkpt lat="43.66108" lon="3.81907">
        <ele>94</ele>
        <time>2021-12-19T10:52:35Z</time>
      </trkpt>
      <trkpt lat="43.66124" lon="3.81888">
        <ele>95.9</ele>
        <time>2021-12-19T10:52:45Z</time>
      </trkpt>
      <trkpt lat="43.6614" lon="3.81872">
        <ele>97.1</ele>
        <time>2021-12-19T10:52:55Z</time>
      </trkpt>
      <trkpt lat="43.66152" lon="3.81873">
        <ele>98.2</ele>
        <time>2021-12-19T10:53:05Z</time>
      </trkpt>
      <trkpt lat="43.66157" lon="3.81893">
        <ele>98.3</ele>
        <time>2021-12-19T10:53:15Z</time>
      </trkpt>
      <trkpt lat="43.66155" lon="3.81919">
        <ele>98.2</ele>
        <time>2021-12-19T10:53:25Z</time>
      </trkpt>
      <trkpt lat="43.66166" lon="3.81947">
        <ele>98.8</ele>
        <time>2021-12-19T10:53:35Z</time>
      </trkpt>
      <trkpt lat="43.66178" lon="3.81969">
        <ele>100.6</ele>
        <time>2021-12-19T10:53:45Z</time>
      </trkpt>
      <trkpt lat="43.6619" lon="3.81976">
        <ele>102.8</ele>
        <time>2021-12-19T10:53:55Z</time>
      </trkpt>
      <trkpt lat="43.662" lon="3.81979">
        <ele>104.7</ele>
        <time>2021-12-19T10:54:05Z</time>
      </trkpt>
      <trkpt lat="43.66209" lon="3.81967">
        <ele>107.3</ele>
        <time>2021-12-19T10:54:15Z</time>
      </trkpt>
      <trkpt lat="43.66212" lon="3.81944">
        <ele>108.8</ele>
        <time>2021-12-19T10:54:25Z</time>
      </trkpt>
      <trkpt lat="43.66219" lon="3.81916">
        <ele>110.3</ele>
        <time>2021-12-19T10:54:35Z</time>
      </trkpt>
      <trkpt lat="43.66222" lon="3.81886">
        <ele>110</ele>
        <time>2021-12-19T10:54:45Z</time>
      </trkpt>
      <trkpt lat="43.66226" lon="3.81855">
        <ele>111.1</ele>
        <time>2021-12-19T10:54:55Z</time>
      </trkpt>
      <trkpt lat="43.66227" lon="3.81823">
        <ele>111.5</ele>
        <time>2021-12-19T10:55:05Z</time>
      </trkpt>
      <trkpt lat="43.6623" lon="3.8179">
        <ele>113.2</ele>
        <time>2021-12-19T10:55:15Z</time>
      </trkpt>
      <trkpt lat="43.66233" lon="3.81763">
        <ele>114.9</ele>
        <time>2021-12-19T10:55:25Z</time>
      </trkpt>
      <trkpt lat="43.6623" lon="3.81733">
        <ele>115</ele>
        <time>2021-12-19T10:55:35Z</time>
      </trkpt>
      <trkpt lat="43.66225" lon="3.81701">
        <ele>114.1</ele>
        <time>2021-12-19T10:55:45Z</time>
      </trkpt>
      <trkpt lat="43.66226" lon="3.81674">
        <ele>115.2</ele>
        <time>2021-12-19T10:55:55Z</time>
      </trkpt>
      <trkpt lat="43.66225" lon="3.81632">
        <ele>113.9</ele>
        <time>2021-12-19T10:56:05Z</time>
      </trkpt>
      <trkpt lat="43.66221" lon="3.81594">
        <ele>111</ele>
        <time>2021-12-19T10:56:15Z</time>
      </trkpt>
      <trkpt lat="43.66214" lon="3.81562">
        <ele>108.9</ele>
        <time>2021-12-19T10:56:25Z</time>
      </trkpt>
      <trkpt lat="43.66204" lon="3.81533">
        <ele>106</ele>
        <time>2021-12-19T10:56:35Z</time>
      </trkpt>
      <trkpt lat="43.66195" lon="3.81502">
        <ele>103.2</ele>
        <time>2021-12-19T10:56:45Z</time>
      </trkpt>
      <trkpt lat="43.66175" lon="3.81469">
        <ele>97.9</ele>
        <time>2021-12-19T10:56:55Z</time>
      </trkpt>
      <trkpt lat="43.6617" lon="3.81439">
        <ele>95.4</ele>
        <time>2021-12-19T10:57:05Z</time>
      </trkpt>
      <trkpt lat="43.66161" lon="3.81398">
        <ele>91.5</ele>
        <time>2021-12-19T10:57:15Z</time>
      </trkpt>
      <trkpt lat="43.66145" lon="3.81332">
        <ele>86.9</ele>
        <time>2021-12-19T10:57:25Z</time>
      </trkpt>
      <trkpt lat="43.66162" lon="3.81317">
        <ele>88.3</ele>
        <time>2021-12-19T11:00:55Z</time>
      </trkpt>
      <trkpt lat="43.66184" lon="3.81302">
        <ele>89.7</ele>
        <time>2021-12-19T11:01:15Z</time>
      </trkpt>
      <trkpt lat="43.66205" lon="3.81289">
        <ele>91.5</ele>
        <time>2021-12-19T11:01:25Z</time>
      </trkpt>
      <trkpt lat="43.66223" lon="3.81281">
        <ele>93.4</ele>
        <time>2021-12-19T11:01:35Z</time>
      </trkpt>
      <trkpt lat="43.6624" lon="3.81276">
        <ele>94.7</ele>
        <time>2021-12-19T11:01:45Z</time>
      </trkpt>
      <trkpt lat="43.66258" lon="3.81271">
        <ele>96.9</ele>
        <time>2021-12-19T11:01:55Z</time>
      </trkpt>
      <trkpt lat="43.66276" lon="3.81263">
        <ele>99.4</ele>
        <time>2021-12-19T11:02:05Z</time>
      </trkpt>
      <trkpt lat="43.66292" lon="3.81251">
        <ele>99.8</ele>
        <time>2021-12-19T11:02:15Z</time>
      </trkpt>
      <trkpt lat="43.66306" lon="3.81244">
        <ele>101.2</ele>
        <time>2021-12-19T11:02:25Z</time>
      </trkpt>
      <trkpt lat="43.66321" lon="3.81243">
        <ele>103.9</ele>
        <time>2021-12-19T11:02:35Z</time>
      </trkpt>
      <trkpt lat="43.66335" lon="3.81242">
        <ele>106.2</ele>
        <time>2021-12-19T11:02:45Z</time>
      </trkpt>
      <trkpt lat="43.66347" lon="3.81241">
        <ele>107.5</ele>
        <time>2021-12-19T11:02:55Z</time>
      </trkpt>
      <trkpt lat="43.6636" lon="3.81243">
        <ele>109.8</ele>
        <time>2021-12-19T11:03:05Z</time>
      </trkpt>
      <trkpt lat="43.66375" lon="3.81245">
        <ele>110.9</ele>
        <time>2021-12-19T11:03:15Z</time>
      </trkpt>
      <trkpt lat="43.66393" lon="3.81245">
        <ele>111.6</ele>
        <time>2021-12-19T11:03:25Z</time>
      </trkpt>
      <trkpt lat="43.6641" lon="3.81245">
        <ele>112.8</ele>
        <time>2021-12-19T11:03:35Z</time>
      </trkpt>
      <trkpt lat="43.66425" lon="3.81244">
        <ele>114.3</ele>
        <time>2021-12-19T11:03:45Z</time>
      </trkpt>
      <trkpt lat="43.66439" lon="3.81243">
        <ele>116.2</ele>
        <time>2021-12-19T11:03:55Z</time>
      </trkpt>
      <trkpt lat="43.66452" lon="3.81243">
        <ele>117.7</ele>
        <time>2021-12-19T11:04:05Z</time>
      </trkpt>
      <trkpt lat="43.66466" lon="3.81244">
        <ele>119.3</ele>
        <time>2021-12-19T11:04:15Z</time>
      </trkpt>
      <trkpt lat="43.6648" lon="3.81244">
        <ele>121</ele>
        <time>2021-12-19T11:04:25Z</time>
      </trkpt>
      <trkpt lat="43.66495" lon="3.81244">
        <ele>123.2</ele>
        <time>2021-12-19T11:04:35Z</time>
      </trkpt>
      <trkpt lat="43.66508" lon="3.81245">
        <ele>125.3</ele>
        <time>2021-12-19T11:04:45Z</time>
      </trkpt>
      <trkpt lat="43.66521" lon="3.81245">
        <ele>127.3</ele>
        <time>2021-12-19T11:04:55Z</time>
      </trkpt>
      <trkpt lat="43.66534" lon="3.81245">
        <ele>129.4</ele>
        <time>2021-12-19T11:05:05Z</time>
      </trkpt>
      <trkpt lat="43.66547" lon="3.81244">
        <ele>131.6</ele>
        <time>2021-12-19T11:05:15Z</time>
      </trkpt>
      <trkpt lat="43.6656" lon="3.81243">
        <ele>133.7</ele>
        <time>2021-12-19T11:05:25Z</time>
      </trkpt>
      <trkpt lat="43.66571" lon="3.81242">
        <ele>135.3</ele>
        <time>2021-12-19T11:05:35Z</time>
      </trkpt>
      <trkpt lat="43.66584" lon="3.81244">
        <ele>137.2</ele>
        <time>2021-12-19T11:05:45Z</time>
      </trkpt>
      <trkpt lat="43.666" lon="3.81243">
        <ele>137.9</ele>
        <time>2021-12-19T11:05:55Z</time>
      </trkpt>
      <trkpt lat="43.66618" lon="3.81235">
        <ele>138.4</ele>
        <time>2021-12-19T11:06:05Z</time>
      </trkpt>
      <trkpt lat="43.66641" lon="3.8123">
        <ele>138.4</ele>
        <time>2021-12-19T11:06:15Z</time>
      </trkpt>
      <trkpt lat="43.66664" lon="3.81224">
        <ele>138.9</ele>
        <time>2021-12-19T11:06:25Z</time>
      </trkpt>
      <trkpt lat="43.66687" lon="3.8122">
        <ele>139.2</ele>
        <time>2021-12-19T11:06:35Z</time>
      </trkpt>
      <trkpt lat="43.66708" lon="3.81225">
        <ele>138.3</ele>
        <time>2021-12-19T11:06:45Z</time>
      </trkpt>
      <trkpt lat="43.66696" lon="3.81259">
        <ele>137.3</ele>
        <time>2021-12-19T11:06:55Z</time>
      </trkpt>
      <trkpt lat="43.66674" lon="3.81295">
        <ele>136.6</ele>
        <time>2021-12-19T11:07:05Z</time>
      </trkpt>
      <trkpt lat="43.66642" lon="3.81326">
        <ele>135.3</ele>
        <time>2021-12-19T11:07:15Z</time>
      </trkpt>
      <trkpt lat="43.6662" lon="3.81351">
        <ele>135.5</ele>
        <time>2021-12-19T11:07:25Z</time>
      </trkpt>
      <trkpt lat="43.66595" lon="3.81342">
        <ele>137</ele>
        <time>2021-12-19T11:07:35Z</time>
      </trkpt>
      <trkpt lat="43.6657" lon="3.81335">
        <ele>138.9</ele>
        <time>2021-12-19T11:07:45Z</time>
      </trkpt>
      <trkpt lat="43.66547" lon="3.8133">
        <ele>140</ele>
        <time>2021-12-19T11:07:55Z</time>
      </trkpt>
      <trkpt lat="43.66522" lon="3.81326">
        <ele>139.7</ele>
        <time>2021-12-19T11:08:05Z</time>
      </trkpt>
      <trkpt lat="43.66494" lon="3.81338">
        <ele>140</ele>
        <time>2021-12-19T11:08:15Z</time>
      </trkpt>
      <trkpt lat="43.66464" lon="3.81345">
        <ele>140</ele>
        <time>2021-12-19T11:08:25Z</time>
      </trkpt>
      <trkpt lat="43.66444" lon="3.81357">
        <ele>141.6</ele>
        <time>2021-12-19T11:08:35Z</time>
      </trkpt>
      <trkpt lat="43.66425" lon="3.81371">
        <ele>144.1</ele>
        <time>2021-12-19T11:08:45Z</time>
      </trkpt>
      <trkpt lat="43.66407" lon="3.81383">
        <ele>145.9</ele>
        <time>2021-12-19T11:08:55Z</time>
      </trkpt>
      <trkpt lat="43.6639" lon="3.81398">
        <ele>147.3</ele>
        <time>2021-12-19T11:09:05Z</time>
      </trkpt>
      <trkpt lat="43.66376" lon="3.81415">
        <ele>148.4</ele>
        <time>2021-12-19T11:09:15Z</time>
      </trkpt>
      <trkpt lat="43.66362" lon="3.8143">
        <ele>149.4</ele>
        <time>2021-12-19T11:09:25Z</time>
      </trkpt>
      <trkpt lat="43.66351" lon="3.81446">
        <ele>149.7</ele>
        <time>2021-12-19T11:09:35Z</time>
      </trkpt>
      <trkpt lat="43.66353" lon="3.81475">
        <ele>151</ele>
        <time>2021-12-19T11:09:45Z</time>
      </trkpt>
      <trkpt lat="43.66356" lon="3.81512">
        <ele>151</ele>
        <time>2021-12-19T11:09:55Z</time>
      </trkpt>
      <trkpt lat="43.66352" lon="3.81538">
        <ele>151</ele>
        <time>2021-12-19T11:10:05Z</time>
      </trkpt>
      <trkpt lat="43.66328" lon="3.81566">
        <ele>149.5</ele>
        <time>2021-12-19T11:10:15Z</time>
      </trkpt>
      <trkpt lat="43.66333" lon="3.8161">
        <ele>149.9</ele>
        <time>2021-12-19T11:10:25Z</time>
      </trkpt>
      <trkpt lat="43.66326" lon="3.81653">
        <ele>148.2</ele>
        <time>2021-12-19T11:10:35Z</time>
      </trkpt>
      <trkpt lat="43.66326" lon="3.81686">
        <ele>148.2</ele>
        <time>2021-12-19T11:10:45Z</time>
      </trkpt>
      <trkpt lat="43.66338" lon="3.8169">
        <ele>149.7</ele>
        <time>2021-12-19T11:10:55Z</time>
      </trkpt>
      <trkpt lat="43.66359" lon="3.81685">
        <ele>148.5</ele>
        <time>2021-12-19T11:11:05Z</time>
      </trkpt>
      <trkpt lat="43.66393" lon="3.817">
        <ele>146</ele>
        <time>2021-12-19T11:11:15Z</time>
      </trkpt>
      <trkpt lat="43.66431" lon="3.81727">
        <ele>144.5</ele>
        <time>2021-12-19T11:11:25Z</time>
      </trkpt>
      <trkpt lat="43.66467" lon="3.81749">
        <ele>143.2</ele>
        <time>2021-12-19T11:11:35Z</time>
      </trkpt>
      <trkpt lat="43.66469" lon="3.81727">
        <ele>143.1</ele>
        <time>2021-12-19T11:11:45Z</time>
      </trkpt>
      <trkpt lat="43.66462" lon="3.81689">
        <ele>143.7</ele>
        <time>2021-12-19T11:11:55Z</time>
      </trkpt>
      <trkpt lat="43.6647" lon="3.81652">
        <ele>143.2</ele>
        <time>2021-12-19T11:12:05Z</time>
      </trkpt>
      <trkpt lat="43.66491" lon="3.81621">
        <ele>143.9</ele>
        <time>2021-12-19T11:12:15Z</time>
      </trkpt>
      <trkpt lat="43.66501" lon="3.81579">
        <ele>144</ele>
        <time>2021-12-19T11:12:25Z</time>
      </trkpt>
      <trkpt lat="43.66509" lon="3.81538">
        <ele>143.8</ele>
        <time>2021-12-19T11:12:35Z</time>
      </trkpt>
      <trkpt lat="43.66522" lon="3.815">
        <ele>142.4</ele>
        <time>2021-12-19T11:12:45Z</time>
      </trkpt>
      <trkpt lat="43.66553" lon="3.81487">
        <ele>140.2</ele>
        <time>2021-12-19T11:12:55Z</time>
      </trkpt>
      <trkpt lat="43.66589" lon="3.81437">
        <ele>135.7</ele>
        <time>2021-12-19T11:13:05Z</time>
      </trkpt>
      <trkpt lat="43.66617" lon="3.81377">
        <ele>134.6</ele>
        <time>2021-12-19T11:13:15Z</time>
      </trkpt>
      <trkpt lat="43.66633" lon="3.81348">
        <ele>134.8</ele>
        <time>2021-12-19T11:13:25Z</time>
      </trkpt>
      <trkpt lat="43.66648" lon="3.81318">
        <ele>135.6</ele>
        <time>2021-12-19T11:13:45Z</time>
      </trkpt>
      <trkpt lat="43.66673" lon="3.81294">
        <ele>136.6</ele>
        <time>2021-12-19T11:14:05Z</time>
      </trkpt>
      <trkpt lat="43.66694" lon="3.81262">
        <ele>137.4</ele>
        <time>2021-12-19T11:14:15Z</time>
      </trkpt>
      <trkpt lat="43.6671" lon="3.81226">
        <ele>138.2</ele>
        <time>2021-12-19T11:14:25Z</time>
      </trkpt>
      <trkpt lat="43.66737" lon="3.81219">
        <ele>137.7</ele>
        <time>2021-12-19T11:14:35Z</time>
      </trkpt>
      <trkpt lat="43.66758" lon="3.81216">
        <ele>137.3</ele>
        <time>2021-12-19T11:14:45Z</time>
      </trkpt>
      <trkpt lat="43.66762" lon="3.81192">
        <ele>137.7</ele>
        <time>2021-12-19T11:14:55Z</time>
      </trkpt>
      <trkpt lat="43.66764" lon="3.81141">
        <ele>136.5</ele>
        <time>2021-12-19T11:15:15Z</time>
      </trkpt>
      <trkpt lat="43.66768" lon="3.81078">
        <ele>135</ele>
        <time>2021-12-19T11:15:25Z</time>
      </trkpt>
      <trkpt lat="43.66779" lon="3.81011">
        <ele>132.8</ele>
        <time>2021-12-19T11:15:35Z</time>
      </trkpt>
      <trkpt lat="43.6681" lon="3.80993">
        <ele>133.6</ele>
        <time>2021-12-19T11:15:45Z</time>
      </trkpt>
      <trkpt lat="43.66833" lon="3.80981">
        <ele>134.1</ele>
        <time>2021-12-19T11:15:55Z</time>
      </trkpt>
      <trkpt lat="43.66855" lon="3.80961">
        <ele>133.6</ele>
        <time>2021-12-19T11:17:15Z</time>
      </trkpt>
      <trkpt lat="43.66878" lon="3.80942">
        <ele>131.8</ele>
        <time>2021-12-19T11:17:35Z</time>
      </trkpt>
      <trkpt lat="43.6688" lon="3.80915">
        <ele>134.4</ele>
        <time>2021-12-19T11:17:45Z</time>
      </trkpt>
      <trkpt lat="43.66882" lon="3.80889">
        <ele>136.2</ele>
        <time>2021-12-19T11:17:55Z</time>
      </trkpt>
      <trkpt lat="43.66882" lon="3.80867">
        <ele>137</ele>
        <time>2021-12-19T11:18:05Z</time>
      </trkpt>
      <trkpt lat="43.66877" lon="3.80848">
        <ele>138.1</ele>
        <time>2021-12-19T11:18:15Z</time>
      </trkpt>
      <trkpt lat="43.66878" lon="3.80827">
        <ele>137.8</ele>
        <time>2021-12-19T11:18:25Z</time>
      </trkpt>
      <trkpt lat="43.66872" lon="3.80799">
        <ele>137.4</ele>
        <time>2021-12-19T11:18:35Z</time>
      </trkpt>
      <trkpt lat="43.66866" lon="3.80769">
        <ele>135.8</ele>
        <time>2021-12-19T11:18:45Z</time>
      </trkpt>
      <trkpt lat="43.66869" lon="3.80756">
        <ele>134.3</ele>
        <time>2021-12-19T11:18:55Z</time>
      </trkpt>
      <trkpt lat="43.6688" lon="3.80771">
        <ele>135.1</ele>
        <time>2021-12-19T11:19:05Z</time>
      </trkpt>
      <trkpt lat="43.66899" lon="3.80788">
        <ele>134.6</ele>
        <time>2021-12-19T11:19:15Z</time>
      </trkpt>
      <trkpt lat="43.66919" lon="3.80813">
        <ele>133.9</ele>
        <time>2021-12-19T11:19:35Z</time>
      </trkpt>
      <trkpt lat="43.66931" lon="3.80827">
        <ele>133.5</ele>
        <time>2021-12-19T11:19:55Z</time>
      </trkpt>
      <trkpt lat="43.66945" lon="3.80813">
        <ele>133</ele>
        <time>2021-12-19T11:20:05Z</time>
      </trkpt>
      <trkpt lat="43.66951" lon="3.80792">
        <ele>133.4</ele>
        <time>2021-12-19T11:20:15Z</time>
      </trkpt>
      <trkpt lat="43.66953" lon="3.8077">
        <ele>133.1</ele>
        <time>2021-12-19T11:20:25Z</time>
      </trkpt>
      <trkpt lat="43.66938" lon="3.80772">
        <ele>132.6</ele>
        <time>2021-12-19T11:22:55Z</time>
      </trkpt>
      <trkpt lat="43.66928" lon="3.80734">
        <ele>129.5</ele>
        <time>2021-12-19T11:23:15Z</time>
      </trkpt>
      <trkpt lat="43.66933" lon="3.80669">
        <ele>123.1</ele>
        <time>2021-12-19T11:23:25Z</time>
      </trkpt>
      <trkpt lat="43.66939" lon="3.80583">
        <ele>114.9</ele>
        <time>2021-12-19T11:23:35Z</time>
      </trkpt>
      <trkpt lat="43.66967" lon="3.80504">
        <ele>106.4</ele>
        <time>2021-12-19T11:23:45Z</time>
      </trkpt>
      <trkpt lat="43.67025" lon="3.80428">
        <ele>99.3</ele>
        <time>2021-12-19T11:23:55Z</time>
      </trkpt>
      <trkpt lat="43.67074" lon="3.80339">
        <ele>95.3</ele>
        <time>2021-12-19T11:24:05Z</time>
      </trkpt>
      <trkpt lat="43.67086" lon="3.80239">
        <ele>90.8</ele>
        <time>2021-12-19T11:24:15Z</time>
      </trkpt>
      <trkpt lat="43.67061" lon="3.80149">
        <ele>86.9</ele>
        <time>2021-12-19T11:24:25Z</time>
      </trkpt>
      <trkpt lat="43.67009" lon="3.80127">
        <ele>88.2</ele>
        <time>2021-12-19T11:24:35Z</time>
      </trkpt>
      <trkpt lat="43.66969" lon="3.80105">
        <ele>86.7</ele>
        <time>2021-12-19T11:24:45Z</time>
      </trkpt>
      <trkpt lat="43.66922" lon="3.80089">
        <ele>85</ele>
        <time>2021-12-19T11:24:55Z</time>
      </trkpt>
      <trkpt lat="43.6688" lon="3.80078">
        <ele>84.5</ele>
        <time>2021-12-19T11:25:05Z</time>
      </trkpt>
      <trkpt lat="43.66839" lon="3.80063">
        <ele>82.4</ele>
        <time>2021-12-19T11:25:15Z</time>
      </trkpt>
      <trkpt lat="43.66796" lon="3.80044">
        <ele>79.1</ele>
        <time>2021-12-19T11:25:25Z</time>
      </trkpt>
      <trkpt lat="43.66764" lon="3.80036">
        <ele>78</ele>
        <time>2021-12-19T11:25:35Z</time>
      </trkpt>
      <trkpt lat="43.66747" lon="3.80035">
        <ele>78.7</ele>
        <time>2021-12-19T11:25:45Z</time>
      </trkpt>
      <trkpt lat="43.66766" lon="3.80039">
        <ele>78.4</ele>
        <time>2021-12-19T11:25:55Z</time>
      </trkpt>
      <trkpt lat="43.66786" lon="3.80034">
        <ele>77</ele>
        <time>2021-12-19T11:26:25Z</time>
      </trkpt>
      <trkpt lat="43.66827" lon="3.80006">
        <ele>74.3</ele>
        <time>2021-12-19T11:26:45Z</time>
      </trkpt>
      <trkpt lat="43.66871" lon="3.79982">
        <ele>73.6</ele>
        <time>2021-12-19T11:26:55Z</time>
      </trkpt>
      <trkpt lat="43.66911" lon="3.79978">
        <ele>73.8</ele>
        <time>2021-12-19T11:27:05Z</time>
      </trkpt>
      <trkpt lat="43.66946" lon="3.7998">
        <ele>74</ele>
        <time>2021-12-19T11:27:15Z</time>
      </trkpt>
      <trkpt lat="43.66984" lon="3.79982">
        <ele>74.6</ele>
        <time>2021-12-19T11:27:25Z</time>
      </trkpt>
      <trkpt lat="43.67019" lon="3.79984">
        <ele>74.9</ele>
        <time>2021-12-19T11:27:35Z</time>
      </trkpt>
      <trkpt lat="43.67052" lon="3.79984">
        <ele>75.5</ele>
        <time>2021-12-19T11:27:45Z</time>
      </trkpt>
      <trkpt lat="43.67085" lon="3.79986">
        <ele>76.5</ele>
        <time>2021-12-19T11:27:55Z</time>
      </trkpt>
      <trkpt lat="43.67121" lon="3.79991">
        <ele>77.1</ele>
        <time>2021-12-19T11:28:05Z</time>
      </trkpt>
      <trkpt lat="43.67154" lon="3.79993">
        <ele>77.4</ele>
        <time>2021-12-19T11:28:15Z</time>
      </trkpt>
      <trkpt lat="43.67185" lon="3.79993">
        <ele>78</ele>
        <time>2021-12-19T11:28:25Z</time>
      </trkpt>
      <trkpt lat="43.67216" lon="3.79995">
        <ele>79.6</ele>
        <time>2021-12-19T11:28:35Z</time>
      </trkpt>
      <trkpt lat="43.67242" lon="3.79991">
        <ele>80.5</ele>
        <time>2021-12-19T11:29:55Z</time>
      </trkpt>
      <trkpt lat="43.67268" lon="3.79986">
        <ele>81.5</ele>
        <time>2021-12-19T11:30:15Z</time>
      </trkpt>
      <trkpt lat="43.67296" lon="3.79981">
        <ele>82.4</ele>
        <time>2021-12-19T11:30:25Z</time>
      </trkpt>
      <trkpt lat="43.67323" lon="3.79981">
        <ele>83.3</ele>
        <time>2021-12-19T11:30:35Z</time>
      </trkpt>
      <trkpt lat="43.67351" lon="3.79983">
        <ele>84.2</ele>
        <time>2021-12-19T11:30:45Z</time>
      </trkpt>
      <trkpt lat="43.67379" lon="3.79989">
        <ele>84.7</ele>
        <time>2021-12-19T11:30:55Z</time>
      </trkpt>
      <trkpt lat="43.67408" lon="3.79999">
        <ele>84.8</ele>
        <time>2021-12-19T11:31:05Z</time>
      </trkpt>
      <trkpt lat="43.67437" lon="3.80015">
        <ele>84.7</ele>
        <time>2021-12-19T11:31:15Z</time>
      </trkpt>
      <trkpt lat="43.67469" lon="3.80034">
        <ele>84.4</ele>
        <time>2021-12-19T11:31:25Z</time>
      </trkpt>
      <trkpt lat="43.67501" lon="3.80052">
        <ele>84.1</ele>
        <time>2021-12-19T11:31:35Z</time>
      </trkpt>
      <trkpt lat="43.6753" lon="3.80048">
        <ele>84.3</ele>
        <time>2021-12-19T11:31:45Z</time>
      </trkpt>
      <trkpt lat="43.67536" lon="3.80006">
        <ele>86.9</ele>
        <time>2021-12-19T11:31:55Z</time>
      </trkpt>
      <trkpt lat="43.67529" lon="3.79972">
        <ele>88</ele>
        <time>2021-12-19T11:32:05Z</time>
      </trkpt>
      <trkpt lat="43.67519" lon="3.79942">
        <ele>89.7</ele>
        <time>2021-12-19T11:32:15Z</time>
      </trkpt>
      <trkpt lat="43.67509" lon="3.79911">
        <ele>90.9</ele>
        <time>2021-12-19T11:32:25Z</time>
      </trkpt>
      <trkpt lat="43.67501" lon="3.79877">
        <ele>92.4</ele>
        <time>2021-12-19T11:32:35Z</time>
      </trkpt>
      <trkpt lat="43.67492" lon="3.79844">
        <ele>94.2</ele>
        <time>2021-12-19T11:32:45Z</time>
      </trkpt>
      <trkpt lat="43.67484" lon="3.79808">
        <ele>94.8</ele>
        <time>2021-12-19T11:32:55Z</time>
      </trkpt>
      <trkpt lat="43.67486" lon="3.79774">
        <ele>96.6</ele>
        <time>2021-12-19T11:33:05Z</time>
      </trkpt>
      <trkpt lat="43.67492" lon="3.79746">
        <ele>98.3</ele>
        <time>2021-12-19T11:33:15Z</time>
      </trkpt>
      <trkpt lat="43.67493" lon="3.79715">
        <ele>99.5</ele>
        <time>2021-12-19T11:33:25Z</time>
      </trkpt>
      <trkpt lat="43.67493" lon="3.79679">
        <ele>100.8</ele>
        <time>2021-12-19T11:33:35Z</time>
      </trkpt>
      <trkpt lat="43.67493" lon="3.79644">
        <ele>102.7</ele>
        <time>2021-12-19T11:33:45Z</time>
      </trkpt>
      <trkpt lat="43.67498" lon="3.79618">
        <ele>103.1</ele>
        <time>2021-12-19T11:33:55Z</time>
      </trkpt>
      <trkpt lat="43.67506" lon="3.79607">
        <ele>104.1</ele>
        <time>2021-12-19T11:34:05Z</time>
      </trkpt>
      <trkpt lat="43.67516" lon="3.79588">
        <ele>105.9</ele>
        <time>2021-12-19T11:34:35Z</time>
      </trkpt>
      <trkpt lat="43.67529" lon="3.79569">
        <ele>107.2</ele>
        <time>2021-12-19T11:34:55Z</time>
      </trkpt>
      <trkpt lat="43.67535" lon="3.79545">
        <ele>108.3</ele>
        <time>2021-12-19T11:35:05Z</time>
      </trkpt>
      <trkpt lat="43.67521" lon="3.79528">
        <ele>108.7</ele>
        <time>2021-12-19T11:35:15Z</time>
      </trkpt>
      <trkpt lat="43.67504" lon="3.79515">
        <ele>110</ele>
        <time>2021-12-19T11:35:25Z</time>
      </trkpt>
      <trkpt lat="43.67495" lon="3.79496">
        <ele>112.1</ele>
        <time>2021-12-19T11:35:35Z</time>
      </trkpt>
      <trkpt lat="43.67505" lon="3.79479">
        <ele>114.3</ele>
        <time>2021-12-19T11:35:45Z</time>
      </trkpt>
      <trkpt lat="43.67495" lon="3.79498">
        <ele>111.9</ele>
        <time>2021-12-19T11:35:55Z</time>
      </trkpt>
      <trkpt lat="43.67518" lon="3.79524">
        <ele>109.2</ele>
        <time>2021-12-19T11:36:15Z</time>
      </trkpt>
      <trkpt lat="43.67534" lon="3.79559">
        <ele>107.4</ele>
        <time>2021-12-19T11:36:25Z</time>
      </trkpt>
      <trkpt lat="43.67506" lon="3.79602">
        <ele>104.1</ele>
        <time>2021-12-19T11:36:35Z</time>
      </trkpt>
      <trkpt lat="43.67487" lon="3.79613">
        <ele>102.1</ele>
        <time>2021-12-19T11:36:45Z</time>
      </trkpt>
      <trkpt lat="43.67462" lon="3.79607">
        <ele>100.4</ele>
        <time>2021-12-19T11:37:05Z</time>
      </trkpt>
      <trkpt lat="43.67431" lon="3.79599">
        <ele>98.9</ele>
        <time>2021-12-19T11:37:25Z</time>
      </trkpt>
      <trkpt lat="43.67395" lon="3.79589">
        <ele>97.8</ele>
        <time>2021-12-19T11:37:35Z</time>
      </trkpt>
      <trkpt lat="43.67365" lon="3.79571">
        <ele>97.1</ele>
        <time>2021-12-19T11:37:45Z</time>
      </trkpt>
      <trkpt lat="43.67343" lon="3.79574">
        <ele>95.4</ele>
        <time>2021-12-19T11:38:15Z</time>
      </trkpt>
      <trkpt lat="43.67324" lon="3.79604">
        <ele>93.4</ele>
        <time>2021-12-19T11:38:35Z</time>
      </trkpt>
      <trkpt lat="43.67305" lon="3.79638">
        <ele>92</ele>
        <time>2021-12-19T11:38:45Z</time>
      </trkpt>
      <trkpt lat="43.67283" lon="3.79675">
        <ele>90.1</ele>
        <time>2021-12-19T11:38:55Z</time>
      </trkpt>
      <trkpt lat="43.6726" lon="3.79711">
        <ele>87.9</ele>
        <time>2021-12-19T11:39:05Z</time>
      </trkpt>
      <trkpt lat="43.67234" lon="3.79755">
        <ele>86.3</ele>
        <time>2021-12-19T11:39:15Z</time>
      </trkpt>
      <trkpt lat="43.67207" lon="3.79798">
        <ele>85.1</ele>
        <time>2021-12-19T11:39:25Z</time>
      </trkpt>
      <trkpt lat="43.67186" lon="3.79836">
        <ele>84.6</ele>
        <time>2021-12-19T11:39:35Z</time>
      </trkpt>
      <trkpt lat="43.6716" lon="3.79886">
        <ele>81.9</ele>
        <time>2021-12-19T11:39:45Z</time>
      </trkpt>
      <trkpt lat="43.67164" lon="3.79938">
        <ele>80.1</ele>
        <time>2021-12-19T11:39:55Z</time>
      </trkpt>
      <trkpt lat="43.67182" lon="3.79982">
        <ele>78.5</ele>
        <time>2021-12-19T11:40:05Z</time>
      </trkpt>
      <trkpt lat="43.67213" lon="3.79993">
        <ele>79.4</ele>
        <time>2021-12-19T11:41:15Z</time>
      </trkpt>
      <trkpt lat="43.67247" lon="3.79991">
        <ele>80.6</ele>
        <time>2021-12-19T11:41:35Z</time>
      </trkpt>
      <trkpt lat="43.6728" lon="3.79985">
        <ele>82</ele>
        <time>2021-12-19T11:41:45Z</time>
      </trkpt>
      <trkpt lat="43.67313" lon="3.79982">
        <ele>82.9</ele>
        <time>2021-12-19T11:41:55Z</time>
      </trkpt>
      <trkpt lat="43.67346" lon="3.79983">
        <ele>84.1</ele>
        <time>2021-12-19T11:42:05Z</time>
      </trkpt>
      <trkpt lat="43.67379" lon="3.79991">
        <ele>84.5</ele>
        <time>2021-12-19T11:42:15Z</time>
      </trkpt>
      <trkpt lat="43.67414" lon="3.80004">
        <ele>84.6</ele>
        <time>2021-12-19T11:42:25Z</time>
      </trkpt>
      <trkpt lat="43.67452" lon="3.80026">
        <ele>84.4</ele>
        <time>2021-12-19T11:42:35Z</time>
      </trkpt>
      <trkpt lat="43.67495" lon="3.80056">
        <ele>83.8</ele>
        <time>2021-12-19T11:42:45Z</time>
      </trkpt>
      <trkpt lat="43.67536" lon="3.80081">
        <ele>83.4</ele>
        <time>2021-12-19T11:42:55Z</time>
      </trkpt>
      <trkpt lat="43.67564" lon="3.80097">
        <ele>83.7</ele>
        <time>2021-12-19T11:43:15Z</time>
      </trkpt>
      <trkpt lat="43.676" lon="3.80116">
        <ele>84.1</ele>
        <time>2021-12-19T11:43:35Z</time>
      </trkpt>
      <trkpt lat="43.67636" lon="3.80141">
        <ele>83.9</ele>
        <time>2021-12-19T11:43:45Z</time>
      </trkpt>
      <trkpt lat="43.6767" lon="3.80171">
        <ele>84.8</ele>
        <time>2021-12-19T11:43:55Z</time>
      </trkpt>
      <trkpt lat="43.67704" lon="3.80201">
        <ele>85.1</ele>
        <time>2021-12-19T11:44:05Z</time>
      </trkpt>
      <trkpt lat="43.67736" lon="3.80228">
        <ele>85.9</ele>
        <time>2021-12-19T11:44:15Z</time>
      </trkpt>
      <trkpt lat="43.67765" lon="3.80256">
        <ele>87</ele>
        <time>2021-12-19T11:44:25Z</time>
      </trkpt>
      <trkpt lat="43.67758" lon="3.80301">
        <ele>86.9</ele>
        <time>2021-12-19T11:44:35Z</time>
      </trkpt>
      <trkpt lat="43.6774" lon="3.80338">
        <ele>87.2</ele>
        <time>2021-12-19T11:44:45Z</time>
      </trkpt>
      <trkpt lat="43.67732" lon="3.80364">
        <ele>87.9</ele>
        <time>2021-12-19T11:44:55Z</time>
      </trkpt>
      <trkpt lat="43.67735" lon="3.80353">
        <ele>87.7</ele>
        <time>2021-12-19T11:45:15Z</time>
      </trkpt>
      <trkpt lat="43.67753" lon="3.80315">
        <ele>87</ele>
        <time>2021-12-19T11:45:35Z</time>
      </trkpt>
      <trkpt lat="43.67769" lon="3.80273">
        <ele>86.8</ele>
        <time>2021-12-19T11:45:45Z</time>
      </trkpt>
      <trkpt lat="43.67793" lon="3.80277">
        <ele>87.6</ele>
        <time>2021-12-19T11:45:55Z</time>
      </trkpt>
      <trkpt lat="43.67821" lon="3.80301">
        <ele>88.1</ele>
        <time>2021-12-19T11:46:05Z</time>
      </trkpt>
      <trkpt lat="43.67849" lon="3.80325">
        <ele>88.6</ele>
        <time>2021-12-19T11:46:15Z</time>
      </trkpt>
      <trkpt lat="43.67876" lon="3.80346">
        <ele>89.5</ele>
        <time>2021-12-19T11:46:25Z</time>
      </trkpt>
      <trkpt lat="43.67904" lon="3.80355">
        <ele>91.1</ele>
        <time>2021-12-19T11:46:35Z</time>
      </trkpt>
      <trkpt lat="43.67931" lon="3.80379">
        <ele>92.4</ele>
        <time>2021-12-19T11:46:45Z</time>
      </trkpt>
      <trkpt lat="43.67957" lon="3.80401">
        <ele>93.5</ele>
        <time>2021-12-19T11:46:55Z</time>
      </trkpt>
      <trkpt lat="43.67982" lon="3.80417">
        <ele>94.3</ele>
        <time>2021-12-19T11:47:05Z</time>
      </trkpt>
      <trkpt lat="43.68005" lon="3.80413">
        <ele>95.5</ele>
        <time>2021-12-19T11:47:15Z</time>
      </trkpt>
      <trkpt lat="43.68024" lon="3.80432">
        <ele>95.8</ele>
        <time>2021-12-19T11:47:25Z</time>
      </trkpt>
      <trkpt lat="43.68052" lon="3.80439">
        <ele>96.1</ele>
        <time>2021-12-19T11:47:35Z</time>
      </trkpt>
      <trkpt lat="43.68082" lon="3.80449">
        <ele>96.8</ele>
        <time>2021-12-19T11:47:45Z</time>
      </trkpt>
      <trkpt lat="43.68115" lon="3.80459">
        <ele>97.1</ele>
        <time>2021-12-19T11:47:55Z</time>
      </trkpt>
      <trkpt lat="43.68152" lon="3.8047">
        <ele>97.1</ele>
        <time>2021-12-19T11:48:05Z</time>
      </trkpt>
      <trkpt lat="43.68189" lon="3.80482">
        <ele>97.5</ele>
        <time>2021-12-19T11:48:15Z</time>
      </trkpt>
      <trkpt lat="43.6822" lon="3.8049">
        <ele>97.4</ele>
        <time>2021-12-19T11:48:25Z</time>
      </trkpt>
      <trkpt lat="43.6823" lon="3.80503">
        <ele>97.1</ele>
        <time>2021-12-19T11:48:45Z</time>
      </trkpt>
      <trkpt lat="43.68226" lon="3.80538">
        <ele>95.3</ele>
        <time>2021-12-19T11:49:05Z</time>
      </trkpt>
      <trkpt lat="43.68222" lon="3.80597">
        <ele>92.5</ele>
        <time>2021-12-19T11:49:15Z</time>
      </trkpt>
      <trkpt lat="43.68219" lon="3.80649">
        <ele>91</ele>
        <time>2021-12-19T11:49:25Z</time>
      </trkpt>
      <trkpt lat="43.68216" lon="3.80696">
        <ele>89.9</ele>
        <time>2021-12-19T11:49:35Z</time>
      </trkpt>
      <trkpt lat="43.68192" lon="3.80728">
        <ele>89.2</ele>
        <time>2021-12-19T11:49:45Z</time>
      </trkpt>
      <trkpt lat="43.68153" lon="3.80746">
        <ele>88.1</ele>
        <time>2021-12-19T11:49:55Z</time>
      </trkpt>
      <trkpt lat="43.68118" lon="3.80753">
        <ele>88</ele>
        <time>2021-12-19T11:50:05Z</time>
      </trkpt>
      <trkpt lat="43.68079" lon="3.80751">
        <ele>87.9</ele>
        <time>2021-12-19T11:50:15Z</time>
      </trkpt>
      <trkpt lat="43.68065" lon="3.80785">
        <ele>89.3</ele>
        <time>2021-12-19T11:50:25Z</time>
      </trkpt>
      <trkpt lat="43.68056" lon="3.80823">
        <ele>91.3</ele>
        <time>2021-12-19T11:50:35Z</time>
      </trkpt>
      <trkpt lat="43.68041" lon="3.80856">
        <ele>92.5</ele>
        <time>2021-12-19T11:50:45Z</time>
      </trkpt>
      <trkpt lat="43.68037" lon="3.80897">
        <ele>94.5</ele>
        <time>2021-12-19T11:50:55Z</time>
      </trkpt>
      <trkpt lat="43.68026" lon="3.80929">
        <ele>94.6</ele>
        <time>2021-12-19T11:51:05Z</time>
      </trkpt>
      <trkpt lat="43.68015" lon="3.80947">
        <ele>95.5</ele>
        <time>2021-12-19T11:51:15Z</time>
      </trkpt>
      <trkpt lat="43.68031" lon="3.80974">
        <ele>95.5</ele>
        <time>2021-12-19T11:51:25Z</time>
      </trkpt>
      <trkpt lat="43.68041" lon="3.81008">
        <ele>97</ele>
        <time>2021-12-19T11:51:35Z</time>
      </trkpt>
      <trkpt lat="43.68034" lon="3.81044">
        <ele>98.2</ele>
        <time>2021-12-19T11:51:45Z</time>
      </trkpt>
      <trkpt lat="43.68027" lon="3.81072">
        <ele>100.3</ele>
        <time>2021-12-19T11:51:55Z</time>
      </trkpt>
      <trkpt lat="43.6802" lon="3.811">
        <ele>103.2</ele>
        <time>2021-12-19T11:52:05Z</time>
      </trkpt>
      <trkpt lat="43.68011" lon="3.81126">
        <ele>104.8</ele>
        <time>2021-12-19T11:52:15Z</time>
      </trkpt>
      <trkpt lat="43.68001" lon="3.81156">
        <ele>105.3</ele>
        <time>2021-12-19T11:52:25Z</time>
      </trkpt>
      <trkpt lat="43.67997" lon="3.81191">
        <ele>105.6</ele>
        <time>2021-12-19T11:52:35Z</time>
      </trkpt>
      <trkpt lat="43.67989" lon="3.81211">
        <ele>106.9</ele>
        <time>2021-12-19T11:52:45Z</time>
      </trkpt>
      <trkpt lat="43.67994" lon="3.81204">
        <ele>106.2</ele>
        <time>2021-12-19T11:52:55Z</time>
      </trkpt>
      <trkpt lat="43.67978" lon="3.81245">
        <ele>107.4</ele>
        <time>2021-12-19T11:54:45Z</time>
      </trkpt>
      <trkpt lat="43.67967" lon="3.81271">
        <ele>108.2</ele>
        <time>2021-12-19T11:55:05Z</time>
      </trkpt>
      <trkpt lat="43.67957" lon="3.813">
        <ele>109.7</ele>
        <time>2021-12-19T11:55:15Z</time>
      </trkpt>
      <trkpt lat="43.67946" lon="3.81331">
        <ele>110</ele>
        <time>2021-12-19T11:55:25Z</time>
      </trkpt>
      <trkpt lat="43.67937" lon="3.81364">
        <ele>111.4</ele>
        <time>2021-12-19T11:55:35Z</time>
      </trkpt>
      <trkpt lat="43.6793" lon="3.81398">
        <ele>112.7</ele>
        <time>2021-12-19T11:55:45Z</time>
      </trkpt>
      <trkpt lat="43.67923" lon="3.81423">
        <ele>113.3</ele>
        <time>2021-12-19T11:55:55Z</time>
      </trkpt>
      <trkpt lat="43.67918" lon="3.81455">
        <ele>114.4</ele>
        <time>2021-12-19T11:56:05Z</time>
      </trkpt>
      <trkpt lat="43.67907" lon="3.81492">
        <ele>116.8</ele>
        <time>2021-12-19T11:56:15Z</time>
      </trkpt>
      <trkpt lat="43.67896" lon="3.81523">
        <ele>117.8</ele>
        <time>2021-12-19T11:56:25Z</time>
      </trkpt>
      <trkpt lat="43.67879" lon="3.81542">
        <ele>118.9</ele>
        <time>2021-12-19T11:56:35Z</time>
      </trkpt>
      <trkpt lat="43.6786" lon="3.81557">
        <ele>119.2</ele>
        <time>2021-12-19T11:56:45Z</time>
      </trkpt>
      <trkpt lat="43.67854" lon="3.81583">
        <ele>119.5</ele>
        <time>2021-12-19T11:56:55Z</time>
      </trkpt>
      <trkpt lat="43.67847" lon="3.81604">
        <ele>118.9</ele>
        <time>2021-12-19T11:57:05Z</time>
      </trkpt>
      <trkpt lat="43.67829" lon="3.81624">
        <ele>118.5</ele>
        <time>2021-12-19T11:57:15Z</time>
      </trkpt>
      <trkpt lat="43.67799" lon="3.81649">
        <ele>116.9</ele>
        <time>2021-12-19T11:57:25Z</time>
      </trkpt>
      <trkpt lat="43.67764" lon="3.81668">
        <ele>115.9</ele>
        <time>2021-12-19T11:57:35Z</time>
      </trkpt>
      <trkpt lat="43.67749" lon="3.81695">
        <ele>115</ele>
        <time>2021-12-19T11:57:45Z</time>
      </trkpt>
      <trkpt lat="43.67736" lon="3.81712">
        <ele>114.4</ele>
        <time>2021-12-19T11:58:05Z</time>
      </trkpt>
      <trkpt lat="43.67707" lon="3.81731">
        <ele>114.7</ele>
        <time>2021-12-19T11:58:25Z</time>
      </trkpt>
      <trkpt lat="43.67704" lon="3.81748">
        <ele>114.1</ele>
        <time>2021-12-19T11:58:35Z</time>
      </trkpt>
      <trkpt lat="43.67739" lon="3.81753">
        <ele>113.4</ele>
        <time>2021-12-19T11:58:45Z</time>
      </trkpt>
      <trkpt lat="43.67779" lon="3.81767">
        <ele>111.7</ele>
        <time>2021-12-19T11:58:55Z</time>
      </trkpt>
      <trkpt lat="43.67817" lon="3.81786">
        <ele>110.2</ele>
        <time>2021-12-19T11:59:05Z</time>
      </trkpt>
      <trkpt lat="43.67854" lon="3.81814">
        <ele>107.6</ele>
        <time>2021-12-19T11:59:15Z</time>
      </trkpt>
      <trkpt lat="43.67883" lon="3.81846">
        <ele>105.8</ele>
        <time>2021-12-19T11:59:25Z</time>
      </trkpt>
      <trkpt lat="43.67902" lon="3.81894">
        <ele>104.5</ele>
        <time>2021-12-19T11:59:35Z</time>
      </trkpt>
      <trkpt lat="43.67915" lon="3.81919">
        <ele>103.2</ele>
        <time>2021-12-19T11:59:45Z</time>
      </trkpt>
      <trkpt lat="43.67944" lon="3.81958">
        <ele>101.5</ele>
        <time>2021-12-19T11:59:55Z</time>
      </trkpt>
      <trkpt lat="43.67954" lon="3.82019">
        <ele>100.7</ele>
        <time>2021-12-19T12:00:05Z</time>
      </trkpt>
      <trkpt lat="43.67953" lon="3.82085">
        <ele>100.8</ele>
        <time>2021-12-19T12:00:15Z</time>
      </trkpt>
      <trkpt lat="43.6795" lon="3.82139">
        <ele>101</ele>
        <time>2021-12-19T12:00:25Z</time>
      </trkpt>
      <trkpt lat="43.67952" lon="3.82172">
        <ele>101.8</ele>
        <time>2021-12-19T12:00:35Z</time>
      </trkpt>
      <trkpt lat="43.67957" lon="3.82184">
        <ele>102.1</ele>
        <time>2021-12-19T12:01:45Z</time>
      </trkpt>
      <trkpt lat="43.67979" lon="3.82219">
        <ele>101.4</ele>
        <time>2021-12-19T12:02:05Z</time>
      </trkpt>
      <trkpt lat="43.68011" lon="3.8225">
        <ele>100.6</ele>
        <time>2021-12-19T12:02:15Z</time>
      </trkpt>
      <trkpt lat="43.68043" lon="3.82279">
        <ele>100.7</ele>
        <time>2021-12-19T12:02:25Z</time>
      </trkpt>
      <trkpt lat="43.68071" lon="3.82311">
        <ele>101.3</ele>
        <time>2021-12-19T12:02:35Z</time>
      </trkpt>
      <trkpt lat="43.68087" lon="3.8235">
        <ele>103.9</ele>
        <time>2021-12-19T12:02:45Z</time>
      </trkpt>
      <trkpt lat="43.68095" lon="3.82374">
        <ele>106.5</ele>
        <time>2021-12-19T12:02:55Z</time>
      </trkpt>
      <trkpt lat="43.68099" lon="3.82396">
        <ele>108.9</ele>
        <time>2021-12-19T12:03:05Z</time>
      </trkpt>
      <trkpt lat="43.68092" lon="3.82411">
        <ele>111.6</ele>
        <time>2021-12-19T12:03:15Z</time>
      </trkpt>
      <trkpt lat="43.68082" lon="3.82418">
        <ele>113.2</ele>
        <time>2021-12-19T12:03:25Z</time>
      </trkpt>
      <trkpt lat="43.6807" lon="3.82417">
        <ele>114.9</ele>
        <time>2021-12-19T12:03:35Z</time>
      </trkpt>
      <trkpt lat="43.68058" lon="3.82415">
        <ele>116.7</ele>
        <time>2021-12-19T12:03:45Z</time>
      </trkpt>
      <trkpt lat="43.68044" lon="3.82411">
        <ele>118</ele>
        <time>2021-12-19T12:03:55Z</time>
      </trkpt>
      <trkpt lat="43.68029" lon="3.82406">
        <ele>119.3</ele>
        <time>2021-12-19T12:04:05Z</time>
      </trkpt>
      <trkpt lat="43.68012" lon="3.82399">
        <ele>120.2</ele>
        <time>2021-12-19T12:04:15Z</time>
      </trkpt>
      <trkpt lat="43.67989" lon="3.82392">
        <ele>121.2</ele>
        <time>2021-12-19T12:04:25Z</time>
      </trkpt>
      <trkpt lat="43.67967" lon="3.82379">
        <ele>122</ele>
        <time>2021-12-19T12:04:35Z</time>
      </trkpt>
      <trkpt lat="43.67947" lon="3.82355">
        <ele>122</ele>
        <time>2021-12-19T12:04:45Z</time>
      </trkpt>
      <trkpt lat="43.6793" lon="3.82327">
        <ele>121.9</ele>
        <time>2021-12-19T12:04:55Z</time>
      </trkpt>
      <trkpt lat="43.67919" lon="3.8232">
        <ele>122</ele>
        <time>2021-12-19T12:05:05Z</time>
      </trkpt>
      <trkpt lat="43.67917" lon="3.82337">
        <ele>122</ele>
        <time>2021-12-19T12:05:25Z</time>
      </trkpt>
      <trkpt lat="43.67898" lon="3.82342">
        <ele>122.3</ele>
        <time>2021-12-19T12:05:35Z</time>
      </trkpt>
      <trkpt lat="43.67874" lon="3.8234">
        <ele>122.1</ele>
        <time>2021-12-19T12:05:45Z</time>
      </trkpt>
      <trkpt lat="43.67844" lon="3.82322">
        <ele>122.4</ele>
        <time>2021-12-19T12:05:55Z</time>
      </trkpt>
      <trkpt lat="43.67819" lon="3.82302">
        <ele>123.1</ele>
        <time>2021-12-19T12:06:05Z</time>
      </trkpt>
      <trkpt lat="43.67791" lon="3.82285">
        <ele>123.4</ele>
        <time>2021-12-19T12:06:15Z</time>
      </trkpt>
      <trkpt lat="43.6776" lon="3.82267">
        <ele>123.8</ele>
        <time>2021-12-19T12:06:25Z</time>
      </trkpt>
      <trkpt lat="43.67735" lon="3.82247">
        <ele>125.1</ele>
        <time>2021-12-19T12:06:35Z</time>
      </trkpt>
      <trkpt lat="43.67715" lon="3.82227">
        <ele>125.7</ele>
        <time>2021-12-19T12:06:45Z</time>
      </trkpt>
      <trkpt lat="43.6769" lon="3.82211">
        <ele>126.4</ele>
        <time>2021-12-19T12:06:55Z</time>
      </trkpt>
      <trkpt lat="43.67667" lon="3.82211">
        <ele>127.2</ele>
        <time>2021-12-19T12:07:05Z</time>
      </trkpt>
      <trkpt lat="43.67658" lon="3.82216">
        <ele>127.9</ele>
        <time>2021-12-19T12:09:45Z</time>
      </trkpt>
      <trkpt lat="43.67646" lon="3.822">
        <ele>127.7</ele>
        <time>2021-12-19T12:10:05Z</time>
      </trkpt>
      <trkpt lat="43.67638" lon="3.82178">
        <ele>126.2</ele>
        <time>2021-12-19T12:10:15Z</time>
      </trkpt>
      <trkpt lat="43.67611" lon="3.82176">
        <ele>125</ele>
        <time>2021-12-19T12:10:25Z</time>
      </trkpt>
      <trkpt lat="43.67584" lon="3.82178">
        <ele>125.2</ele>
        <time>2021-12-19T12:10:35Z</time>
      </trkpt>
      <trkpt lat="43.67567" lon="3.82136">
        <ele>123.3</ele>
        <time>2021-12-19T12:10:45Z</time>
      </trkpt>
      <trkpt lat="43.67558" lon="3.82118">
        <ele>124</ele>
        <time>2021-12-19T12:10:55Z</time>
      </trkpt>
      <trkpt lat="43.67535" lon="3.8212">
        <ele>127.5</ele>
        <time>2021-12-19T12:11:15Z</time>
      </trkpt>
      <trkpt lat="43.67514" lon="3.8212">
        <ele>130</ele>
        <time>2021-12-19T12:11:35Z</time>
      </trkpt>
      <trkpt lat="43.67495" lon="3.82123">
        <ele>132</ele>
        <time>2021-12-19T12:11:45Z</time>
      </trkpt>
      <trkpt lat="43.6748" lon="3.82123">
        <ele>133.6</ele>
        <time>2021-12-19T12:11:55Z</time>
      </trkpt>
      <trkpt lat="43.67466" lon="3.82125">
        <ele>134.9</ele>
        <time>2021-12-19T12:12:05Z</time>
      </trkpt>
      <trkpt lat="43.6745" lon="3.82128">
        <ele>136.2</ele>
        <time>2021-12-19T12:12:15Z</time>
      </trkpt>
      <trkpt lat="43.67434" lon="3.82131">
        <ele>137.6</ele>
        <time>2021-12-19T12:12:25Z</time>
      </trkpt>
      <trkpt lat="43.67418" lon="3.82135">
        <ele>138.9</ele>
        <time>2021-12-19T12:12:35Z</time>
      </trkpt>
      <trkpt lat="43.67405" lon="3.82136">
        <ele>139.4</ele>
        <time>2021-12-19T12:14:45Z</time>
      </trkpt>
      <trkpt lat="43.67385" lon="3.82134">
        <ele>139.8</ele>
        <time>2021-12-19T12:15:05Z</time>
      </trkpt>
      <trkpt lat="43.67362" lon="3.82138">
        <ele>140</ele>
        <time>2021-12-19T12:15:15Z</time>
      </trkpt>
      <trkpt lat="43.67312" lon="3.82149">
        <ele>133.7</ele>
        <time>2021-12-19T12:15:25Z</time>
      </trkpt>
      <trkpt lat="43.67266" lon="3.8216">
        <ele>129.8</ele>
        <time>2021-12-19T12:15:35Z</time>
      </trkpt>
      <trkpt lat="43.67243" lon="3.82174">
        <ele>128.2</ele>
        <time>2021-12-19T12:15:45Z</time>
      </trkpt>
      <trkpt lat="43.67221" lon="3.82179">
        <ele>126.6</ele>
        <time>2021-12-19T12:15:55Z</time>
      </trkpt>
      <trkpt lat="43.67202" lon="3.82212">
        <ele>123.3</ele>
        <time>2021-12-19T12:16:05Z</time>
      </trkpt>
      <trkpt lat="43.67164" lon="3.82263">
        <ele>120</ele>
        <time>2021-12-19T12:16:15Z</time>
      </trkpt>
      <trkpt lat="43.6715" lon="3.82286">
        <ele>119.2</ele>
        <time>2021-12-19T12:16:25Z</time>
      </trkpt>
      <trkpt lat="43.67138" lon="3.82306">
        <ele>119</ele>
        <time>2021-12-19T12:16:35Z</time>
      </trkpt>
      <trkpt lat="43.6712" lon="3.82338">
        <ele>118.4</ele>
        <time>2021-12-19T12:16:45Z</time>
      </trkpt>
      <trkpt lat="43.67088" lon="3.82388">
        <ele>114.7</ele>
        <time>2021-12-19T12:16:55Z</time>
      </trkpt>
      <trkpt lat="43.67069" lon="3.82424">
        <ele>111.6</ele>
        <time>2021-12-19T12:17:05Z</time>
      </trkpt>
      <trkpt lat="43.6705" lon="3.82455">
        <ele>110.4</ele>
        <time>2021-12-19T12:17:15Z</time>
      </trkpt>
      <trkpt lat="43.67021" lon="3.8249">
        <ele>109.1</ele>
        <time>2021-12-19T12:17:25Z</time>
      </trkpt>
      <trkpt lat="43.66983" lon="3.82528">
        <ele>108.6</ele>
        <time>2021-12-19T12:17:35Z</time>
      </trkpt>
      <trkpt lat="43.66948" lon="3.82559">
        <ele>108.8</ele>
        <time>2021-12-19T12:17:45Z</time>
      </trkpt>
      <trkpt lat="43.66933" lon="3.82586">
        <ele>108.4</ele>
        <time>2021-12-19T12:17:55Z</time>
      </trkpt>
      <trkpt lat="43.6692" lon="3.82586">
        <ele>108.9</ele>
        <time>2021-12-19T12:18:15Z</time>
      </trkpt>
      <trkpt lat="43.66898" lon="3.826">
        <ele>109.5</ele>
        <time>2021-12-19T12:18:25Z</time>
      </trkpt>
      <trkpt lat="43.66875" lon="3.82625">
        <ele>110.2</ele>
        <time>2021-12-19T12:18:35Z</time>
      </trkpt>
      <trkpt lat="43.66851" lon="3.82648">
        <ele>112.7</ele>
        <time>2021-12-19T12:18:45Z</time>
      </trkpt>
      <trkpt lat="43.66829" lon="3.82662">
        <ele>113.8</ele>
        <time>2021-12-19T12:18:55Z</time>
      </trkpt>
      <trkpt lat="43.66811" lon="3.82679">
        <ele>114.4</ele>
        <time>2021-12-19T12:19:05Z</time>
      </trkpt>
      <trkpt lat="43.66781" lon="3.82705">
        <ele>114.2</ele>
        <time>2021-12-19T12:19:15Z</time>
      </trkpt>
      <trkpt lat="43.66752" lon="3.82727">
        <ele>113.9</ele>
        <time>2021-12-19T12:19:25Z</time>
      </trkpt>
      <trkpt lat="43.66724" lon="3.82752">
        <ele>114.3</ele>
        <time>2021-12-19T12:19:35Z</time>
      </trkpt>
      <trkpt lat="43.66693" lon="3.82783">
        <ele>114.2</ele>
        <time>2021-12-19T12:19:45Z</time>
      </trkpt>
      <trkpt lat="43.66652" lon="3.82819">
        <ele>114.5</ele>
        <time>2021-12-19T12:19:55Z</time>
      </trkpt>
      <trkpt lat="43.66617" lon="3.82862">
        <ele>115</ele>
        <time>2021-12-19T12:20:05Z</time>
      </trkpt>
      <trkpt lat="43.66616" lon="3.82903">
        <ele>115.3</ele>
        <time>2021-12-19T12:20:15Z</time>
      </trkpt>
      <trkpt lat="43.66625" lon="3.82936">
        <ele>116.3</ele>
        <time>2021-12-19T12:20:25Z</time>
      </trkpt>
      <trkpt lat="43.66638" lon="3.82975">
        <ele>117</ele>
        <time>2021-12-19T12:20:35Z</time>
      </trkpt>
      <trkpt lat="43.66645" lon="3.83018">
        <ele>117.3</ele>
        <time>2021-12-19T12:20:45Z</time>
      </trkpt>
      <trkpt lat="43.66648" lon="3.83061">
        <ele>117</ele>
        <time>2021-12-19T12:20:55Z</time>
      </trkpt>
      <trkpt lat="43.6664" lon="3.83105">
        <ele>117</ele>
        <time>2021-12-19T12:21:05Z</time>
      </trkpt>
      <trkpt lat="43.66637" lon="3.83141">
        <ele>118.1</ele>
        <time>2021-12-19T12:21:15Z</time>
      </trkpt>
      <trkpt lat="43.66671" lon="3.8313">
        <ele>116.5</ele>
        <time>2021-12-19T12:21:35Z</time>
      </trkpt>
      <trkpt lat="43.66707" lon="3.83125">
        <ele>115.3</ele>
        <time>2021-12-19T12:21:55Z</time>
      </trkpt>
      <trkpt lat="43.66726" lon="3.83101">
        <ele>116.4</ele>
        <time>2021-12-19T12:22:05Z</time>
      </trkpt>
      <trkpt lat="43.66735" lon="3.83098">
        <ele>116.5</ele>
        <time>2021-12-19T12:22:15Z</time>
      </trkpt>
      <trkpt lat="43.66726" lon="3.83101">
        <ele>116.4</ele>
        <time>2021-12-19T12:22:25Z</time>
      </trkpt>
      <trkpt lat="43.66718" lon="3.8312">
        <ele>115.2</ele>
        <time>2021-12-19T12:22:35Z</time>
      </trkpt>
      <trkpt lat="43.66703" lon="3.83124">
        <ele>115.6</ele>
        <time>2021-12-19T12:22:45Z</time>
      </trkpt>
      <trkpt lat="43.66702" lon="3.83137">
        <ele>114.6</ele>
        <time>2021-12-19T12:22:55Z</time>
      </trkpt>
      <trkpt lat="43.66719" lon="3.83141">
        <ele>113.2</ele>
        <time>2021-12-19T12:23:05Z</time>
      </trkpt>
      <trkpt lat="43.66731" lon="3.83158">
        <ele>111.9</ele>
        <time>2021-12-19T12:23:15Z</time>
      </trkpt>
      <trkpt lat="43.66739" lon="3.83205">
        <ele>106.2</ele>
        <time>2021-12-19T12:23:25Z</time>
      </trkpt>
      <trkpt lat="43.66752" lon="3.83255">
        <ele>101.5</ele>
        <time>2021-12-19T12:23:35Z</time>
      </trkpt>
      <trkpt lat="43.66732" lon="3.83262">
        <ele>103.9</ele>
        <time>2021-12-19T12:24:35Z</time>
      </trkpt>
      <trkpt lat="43.66713" lon="3.83265">
        <ele>105.6</ele>
        <time>2021-12-19T12:24:55Z</time>
      </trkpt>
      <trkpt lat="43.66694" lon="3.83267">
        <ele>106.8</ele>
        <time>2021-12-19T12:25:05Z</time>
      </trkpt>
      <trkpt lat="43.66678" lon="3.83266">
        <ele>108</ele>
        <time>2021-12-19T12:25:15Z</time>
      </trkpt>
      <trkpt lat="43.6666" lon="3.83262">
        <ele>109.5</ele>
        <time>2021-12-19T12:25:25Z</time>
      </trkpt>
      <trkpt lat="43.66644" lon="3.83257">
        <ele>110.5</ele>
        <time>2021-12-19T12:25:35Z</time>
      </trkpt>
      <trkpt lat="43.66629" lon="3.83252">
        <ele>111.6</ele>
        <time>2021-12-19T12:25:45Z</time>
      </trkpt>
      <trkpt lat="43.66615" lon="3.83246">
        <ele>113</ele>
        <time>2021-12-19T12:25:55Z</time>
      </trkpt>
      <trkpt lat="43.66602" lon="3.83244">
        <ele>113.8</ele>
        <time>2021-12-19T12:26:05Z</time>
      </trkpt>
      <trkpt lat="43.66597" lon="3.83261">
        <ele>112.9</ele>
        <time>2021-12-19T12:31:05Z</time>
      </trkpt>
      <trkpt lat="43.66587" lon="3.83297">
        <ele>110.7</ele>
        <time>2021-12-19T12:31:25Z</time>
      </trkpt>
      <trkpt lat="43.66585" lon="3.83344">
        <ele>108.7</ele>
        <time>2021-12-19T12:31:35Z</time>
      </trkpt>
      <trkpt lat="43.66593" lon="3.83382">
        <ele>107.7</ele>
        <time>2021-12-19T12:31:45Z</time>
      </trkpt>
      <trkpt lat="43.66604" lon="3.83432">
        <ele>105.9</ele>
        <time>2021-12-19T12:31:55Z</time>
      </trkpt>
      <trkpt lat="43.6661" lon="3.83504">
        <ele>102</ele>
        <time>2021-12-19T12:32:05Z</time>
      </trkpt>
      <trkpt lat="43.66605" lon="3.8356">
        <ele>101.3</ele>
        <time>2021-12-19T12:32:15Z</time>
      </trkpt>
      <trkpt lat="43.66603" lon="3.83609">
        <ele>100.6</ele>
        <time>2021-12-19T12:32:25Z</time>
      </trkpt>
      <trkpt lat="43.66608" lon="3.83656">
        <ele>99.4</ele>
        <time>2021-12-19T12:32:35Z</time>
      </trkpt>
      <trkpt lat="43.66607" lon="3.83714">
        <ele>94.1</ele>
        <time>2021-12-19T12:32:45Z</time>
      </trkpt>
      <trkpt lat="43.66615" lon="3.83779">
        <ele>89</ele>
        <time>2021-12-19T12:32:55Z</time>
      </trkpt>
      <trkpt lat="43.66618" lon="3.83831">
        <ele>89.2</ele>
        <time>2021-12-19T12:33:05Z</time>
      </trkpt>
      <trkpt lat="43.66592" lon="3.83826">
        <ele>86.7</ele>
        <time>2021-12-19T12:33:15Z</time>
      </trkpt>
      <trkpt lat="43.66564" lon="3.83797">
        <ele>83</ele>
        <time>2021-12-19T12:33:25Z</time>
      </trkpt>
      <trkpt lat="43.66536" lon="3.83832">
        <ele>79.5</ele>
        <time>2021-12-19T12:33:35Z</time>
      </trkpt>
      <trkpt lat="43.66501" lon="3.83839">
        <ele>78.6</ele>
        <time>2021-12-19T12:33:45Z</time>
      </trkpt>
      <trkpt lat="43.66465" lon="3.83845">
        <ele>77.6</ele>
        <time>2021-12-19T12:33:55Z</time>
      </trkpt>
      <trkpt lat="43.66424" lon="3.8386">
        <ele>75.3</ele>
        <time>2021-12-19T12:34:05Z</time>
      </trkpt>
      <trkpt lat="43.66383" lon="3.83889">
        <ele>72.2</ele>
        <time>2021-12-19T12:34:15Z</time>
      </trkpt>
      <trkpt lat="43.66337" lon="3.83915">
        <ele>69.2</ele>
        <time>2021-12-19T12:34:25Z</time>
      </trkpt>
      <trkpt lat="43.6631" lon="3.83942">
        <ele>67.2</ele>
        <time>2021-12-19T12:34:35Z</time>
      </trkpt>
      <trkpt lat="43.66279" lon="3.83952">
        <ele>66.5</ele>
        <time>2021-12-19T12:34:45Z</time>
      </trkpt>
      <trkpt lat="43.66245" lon="3.83937">
        <ele>67</ele>
        <time>2021-12-19T12:34:55Z</time>
      </trkpt>
      <trkpt lat="43.66224" lon="3.83928">
        <ele>67.6</ele>
        <time>2021-12-19T12:35:05Z</time>
      </trkpt>
      <trkpt lat="43.66194" lon="3.83914">
        <ele>68.1</ele>
        <time>2021-12-19T12:35:15Z</time>
      </trkpt>
      <trkpt lat="43.66154" lon="3.83896">
        <ele>69.3</ele>
        <time>2021-12-19T12:35:25Z</time>
      </trkpt>
      <trkpt lat="43.66121" lon="3.83879">
        <ele>70.5</ele>
        <time>2021-12-19T12:35:35Z</time>
      </trkpt>
      <trkpt lat="43.66133" lon="3.83895">
        <ele>69.8</ele>
        <time>2021-12-19T12:35:45Z</time>
      </trkpt>
      <trkpt lat="43.66163" lon="3.83909">
        <ele>69</ele>
        <time>2021-12-19T12:35:55Z</time>
      </trkpt>
      <trkpt lat="43.66202" lon="3.83927">
        <ele>67.6</ele>
        <time>2021-12-19T12:36:05Z</time>
      </trkpt>
      <trkpt lat="43.66241" lon="3.83948">
        <ele>66.9</ele>
        <time>2021-12-19T12:36:15Z</time>
      </trkpt>
      <trkpt lat="43.66279" lon="3.83972">
        <ele>65.1</ele>
        <time>2021-12-19T12:36:25Z</time>
      </trkpt>
      <trkpt lat="43.66294" lon="3.84016">
        <ele>64.8</ele>
        <time>2021-12-19T12:36:35Z</time>
      </trkpt>
      <trkpt lat="43.66293" lon="3.84075">
        <ele>63.8</ele>
        <time>2021-12-19T12:36:45Z</time>
      </trkpt>
      <trkpt lat="43.66289" lon="3.84136">
        <ele>62.1</ele>
        <time>2021-12-19T12:36:55Z</time>
      </trkpt>
      <trkpt lat="43.66287" lon="3.842">
        <ele>61.3</ele>
        <time>2021-12-19T12:37:05Z</time>
      </trkpt>
      <trkpt lat="43.66279" lon="3.84264">
        <ele>60</ele>
        <time>2021-12-19T12:37:15Z</time>
      </trkpt>
      <trkpt lat="43.6625" lon="3.84312">
        <ele>59.8</ele>
        <time>2021-12-19T12:37:25Z</time>
      </trkpt>
      <trkpt lat="43.66225" lon="3.84354">
        <ele>59</ele>
        <time>2021-12-19T12:37:35Z</time>
      </trkpt>
      <trkpt lat="43.66215" lon="3.84393">
        <ele>57.6</ele>
        <time>2021-12-19T12:37:45Z</time>
      </trkpt>
      <trkpt lat="43.66192" lon="3.84425">
        <ele>58.2</ele>
        <time>2021-12-19T12:37:55Z</time>
      </trkpt>
      <trkpt lat="43.66159" lon="3.84448">
        <ele>58.9</ele>
        <time>2021-12-19T12:38:05Z</time>
      </trkpt>
      <trkpt lat="43.66131" lon="3.84472">
        <ele>59</ele>
        <time>2021-12-19T12:38:15Z</time>
      </trkpt>
      <trkpt lat="43.66112" lon="3.84474">
        <ele>59</ele>
        <time>2021-12-19T12:38:25Z</time>
      </trkpt>
      <trkpt lat="43.661" lon="3.8445">
        <ele>61.2</ele>
        <time>2021-12-19T12:38:35Z</time>
      </trkpt>
      <trkpt lat="43.66088" lon="3.84419">
        <ele>62.5</ele>
        <time>2021-12-19T12:38:45Z</time>
      </trkpt>
      <trkpt lat="43.66074" lon="3.8439">
        <ele>63.8</ele>
        <time>2021-12-19T12:38:55Z</time>
      </trkpt>
      <trkpt lat="43.66061" lon="3.84361">
        <ele>65.8</ele>
        <time>2021-12-19T12:39:05Z</time>
      </trkpt>
      <trkpt lat="43.66046" lon="3.84326">
        <ele>66.4</ele>
        <time>2021-12-19T12:39:15Z</time>
      </trkpt>
      <trkpt lat="43.66031" lon="3.84305">
        <ele>68.1</ele>
        <time>2021-12-19T12:39:25Z</time>
      </trkpt>
      <trkpt lat="43.66029" lon="3.84261">
        <ele>63.3</ele>
        <time>2021-12-19T12:39:35Z</time>
      </trkpt>
      <trkpt lat="43.66008" lon="3.84228">
        <ele>65.4</ele>
        <time>2021-12-19T12:39:45Z</time>
      </trkpt>
      <trkpt lat="43.6599" lon="3.84195">
        <ele>65.6</ele>
        <time>2021-12-19T12:39:55Z</time>
      </trkpt>
      <trkpt lat="43.65973" lon="3.84156">
        <ele>66.2</ele>
        <time>2021-12-19T12:40:05Z</time>
      </trkpt>
      <trkpt lat="43.65953" lon="3.84121">
        <ele>69.6</ele>
        <time>2021-12-19T12:40:15Z</time>
      </trkpt>
      <trkpt lat="43.65935" lon="3.84085">
        <ele>70.3</ele>
        <time>2021-12-19T12:40:25Z</time>
      </trkpt>
      <trkpt lat="43.65915" lon="3.84064">
        <ele>71.8</ele>
        <time>2021-12-19T12:40:35Z</time>
      </trkpt>
      <trkpt lat="43.65911" lon="3.84057">
        <ele>72</ele>
        <time>2021-12-19T12:40:45Z</time>
      </trkpt>
      <trkpt lat="43.65904" lon="3.84038">
        <ele>71.6</ele>
        <time>2021-12-19T12:40:55Z</time>
      </trkpt>
      <trkpt lat="43.65887" lon="3.84002">
        <ele>70.7</ele>
        <time>2021-12-19T12:41:05Z</time>
      </trkpt>
      <trkpt lat="43.65865" lon="3.83976">
        <ele>71.9</ele>
        <time>2021-12-19T12:41:15Z</time>
      </trkpt>
      <trkpt lat="43.6585" lon="3.83956">
        <ele>73.7</ele>
        <time>2021-12-19T12:41:25Z</time>
      </trkpt>
      <trkpt lat="43.65839" lon="3.8393">
        <ele>73.9</ele>
        <time>2021-12-19T12:41:35Z</time>
      </trkpt>
      <trkpt lat="43.65823" lon="3.83901">
        <ele>75.6</ele>
        <time>2021-12-19T12:41:45Z</time>
      </trkpt>
      <trkpt lat="43.65807" lon="3.83877">
        <ele>76.4</ele>
        <time>2021-12-19T12:41:55Z</time>
      </trkpt>
      <trkpt lat="43.65786" lon="3.83859">
        <ele>76.9</ele>
        <time>2021-12-19T12:42:05Z</time>
      </trkpt>
      <trkpt lat="43.65764" lon="3.8385">
        <ele>77.8</ele>
        <time>2021-12-19T12:42:15Z</time>
      </trkpt>
      <trkpt lat="43.65741" lon="3.83846">
        <ele>79.2</ele>
        <time>2021-12-19T12:42:25Z</time>
      </trkpt>
      <trkpt lat="43.65719" lon="3.83837">
        <ele>79.8</ele>
        <time>2021-12-19T12:42:35Z</time>
      </trkpt>
      <trkpt lat="43.65686" lon="3.83824">
        <ele>80.6</ele>
        <time>2021-12-19T12:42:45Z</time>
      </trkpt>
      <trkpt lat="43.65663" lon="3.83815">
        <ele>81.8</ele>
        <time>2021-12-19T12:42:55Z</time>
      </trkpt>
      <trkpt lat="43.65639" lon="3.83802">
        <ele>82.6</ele>
        <time>2021-12-19T12:43:05Z</time>
      </trkpt>
      <trkpt lat="43.65624" lon="3.83775">
        <ele>82</ele>
        <time>2021-12-19T12:43:15Z</time>
      </trkpt>
      <trkpt lat="43.65602" lon="3.83754">
        <ele>84.4</ele>
        <time>2021-12-19T12:43:25Z</time>
      </trkpt>
      <trkpt lat="43.656" lon="3.83733">
        <ele>82.8</ele>
        <time>2021-12-19T12:43:35Z</time>
      </trkpt>
      <trkpt lat="43.65604" lon="3.83703">
        <ele>80.8</ele>
        <time>2021-12-19T12:44:25Z</time>
      </trkpt>
      <trkpt lat="43.65588" lon="3.83672">
        <ele>81.7</ele>
        <time>2021-12-19T12:44:45Z</time>
      </trkpt>
      <trkpt lat="43.65574" lon="3.83641">
        <ele>82.1</ele>
        <time>2021-12-19T12:44:55Z</time>
      </trkpt>
      <trkpt lat="43.6556" lon="3.8361">
        <ele>83.7</ele>
        <time>2021-12-19T12:45:05Z</time>
      </trkpt>
      <trkpt lat="43.65548" lon="3.83579">
        <ele>85.1</ele>
        <time>2021-12-19T12:45:15Z</time>
      </trkpt>
      <trkpt lat="43.65535" lon="3.8355">
        <ele>87</ele>
        <time>2021-12-19T12:45:25Z</time>
      </trkpt>
      <trkpt lat="43.65522" lon="3.83523">
        <ele>88.5</ele>
        <time>2021-12-19T12:45:35Z</time>
      </trkpt>
      <trkpt lat="43.65503" lon="3.835">
        <ele>90.6</ele>
        <time>2021-12-19T12:45:45Z</time>
      </trkpt>
      <trkpt lat="43.65481" lon="3.83478">
        <ele>87.3</ele>
        <time>2021-12-19T12:45:55Z</time>
      </trkpt>
      <trkpt lat="43.65464" lon="3.8345">
        <ele>91</ele>
        <time>2021-12-19T12:46:05Z</time>
      </trkpt>
      <trkpt lat="43.65488" lon="3.83416">
        <ele>90.5</ele>
        <time>2021-12-19T12:46:15Z</time>
      </trkpt>
      <trkpt lat="43.65522" lon="3.83374">
        <ele>90</ele>
        <time>2021-12-19T12:46:25Z</time>
      </trkpt>
      <trkpt lat="43.65558" lon="3.8333">
        <ele>89.9</ele>
        <time>2021-12-19T12:46:35Z</time>
      </trkpt>
      <trkpt lat="43.65594" lon="3.83285">
        <ele>89.5</ele>
        <time>2021-12-19T12:46:45Z</time>
      </trkpt>
      <trkpt lat="43.65632" lon="3.83239">
        <ele>89.4</ele>
        <time>2021-12-19T12:46:55Z</time>
      </trkpt>
      <trkpt lat="43.65669" lon="3.83194">
        <ele>89.9</ele>
        <time>2021-12-19T12:47:05Z</time>
      </trkpt>
      <trkpt lat="43.65706" lon="3.83149">
        <ele>90.6</ele>
        <time>2021-12-19T12:47:15Z</time>
      </trkpt>
      <trkpt lat="43.65743" lon="3.83104">
        <ele>90.4</ele>
        <time>2021-12-19T12:47:25Z</time>
      </trkpt>
      <trkpt lat="43.65779" lon="3.83061">
        <ele>89.5</ele>
        <time>2021-12-19T12:47:35Z</time>
      </trkpt>
      <trkpt lat="43.65772" lon="3.83009">
        <ele>90.1</ele>
        <time>2021-12-19T12:47:45Z</time>
      </trkpt>
      <trkpt lat="43.65756" lon="3.82959">
        <ele>91</ele>
        <time>2021-12-19T12:47:55Z</time>
      </trkpt>
      <trkpt lat="43.65738" lon="3.82937">
        <ele>92.5</ele>
        <time>2021-12-19T12:48:05Z</time>
      </trkpt>
      <trkpt lat="43.65731" lon="3.82951">
        <ele>93.6</ele>
        <time>2021-12-19T12:48:15Z</time>
      </trkpt>
      <trkpt lat="43.6572" lon="3.82969">
        <ele>94.4</ele>
        <time>2021-12-19T12:48:25Z</time>
      </trkpt>
      <trkpt lat="43.65722" lon="3.82951">
        <ele>94.8</ele>
        <time>2021-12-19T12:48:35Z</time>
      </trkpt>
      <trkpt lat="43.65718" lon="3.8293">
        <ele>94.9</ele>
        <time>2021-12-19T12:48:45Z</time>
      </trkpt>
      <trkpt lat="43.65709" lon="3.82916">
        <ele>95.4</ele>
        <time>2021-12-19T12:48:55Z</time>
      </trkpt>
      <trkpt lat="43.65696" lon="3.82903">
        <ele>96.3</ele>
        <time>2021-12-19T12:49:05Z</time>
      </trkpt>
      <trkpt lat="43.6568" lon="3.82897">
        <ele>98.4</ele>
        <time>2021-12-19T12:49:15Z</time>
      </trkpt>
      <trkpt lat="43.65663" lon="3.82892">
        <ele>100.7</ele>
        <time>2021-12-19T12:49:25Z</time>
      </trkpt>
      <trkpt lat="43.65647" lon="3.82886">
        <ele>102.8</ele>
        <time>2021-12-19T12:49:35Z</time>
      </trkpt>
      <trkpt lat="43.65631" lon="3.82884">
        <ele>104.7</ele>
        <time>2021-12-19T12:49:45Z</time>
      </trkpt>
      <trkpt lat="43.65617" lon="3.82881">
        <ele>106.3</ele>
        <time>2021-12-19T12:49:55Z</time>
      </trkpt>
      <trkpt lat="43.65605" lon="3.82872">
        <ele>108.2</ele>
        <time>2021-12-19T12:50:05Z</time>
      </trkpt>
      <trkpt lat="43.65589" lon="3.82867">
        <ele>111.1</ele>
        <time>2021-12-19T12:50:15Z</time>
      </trkpt>
      <trkpt lat="43.65577" lon="3.82863">
        <ele>113.3</ele>
        <time>2021-12-19T12:50:25Z</time>
      </trkpt>
      <trkpt lat="43.65565" lon="3.82854">
        <ele>114.5</ele>
        <time>2021-12-19T12:50:35Z</time>
      </trkpt>
      <trkpt lat="43.65554" lon="3.82841">
        <ele>114.4</ele>
        <time>2021-12-19T12:50:45Z</time>
      </trkpt>
      <trkpt lat="43.6554" lon="3.82835">
        <ele>116.6</ele>
        <time>2021-12-19T12:50:55Z</time>
      </trkpt>
      <trkpt lat="43.65521" lon="3.82836">
        <ele>120.6</ele>
        <time>2021-12-19T12:51:25Z</time>
      </trkpt>
      <trkpt lat="43.65516" lon="3.82839">
        <ele>121.8</ele>
        <time>2021-12-19T12:51:45Z</time>
      </trkpt>
      <trkpt lat="43.65508" lon="3.82839">
        <ele>123.1</ele>
        <time>2021-12-19T12:51:55Z</time>
      </trkpt>
      <trkpt lat="43.65502" lon="3.82834">
        <ele>123.7</ele>
        <time>2021-12-19T12:52:05Z</time>
      </trkpt>
      <trkpt lat="43.65497" lon="3.82818">
        <ele>122.6</ele>
        <time>2021-12-19T12:52:15Z</time>
      </trkpt>
      <trkpt lat="43.65487" lon="3.82804">
        <ele>122.8</ele>
        <time>2021-12-19T12:52:35Z</time>
      </trkpt>
      <trkpt lat="43.6547" lon="3.82784">
        <ele>125</ele>
        <time>2021-12-19T12:52:45Z</time>
      </trkpt>
      <trkpt lat="43.65448" lon="3.82771">
        <ele>125.2</ele>
        <time>2021-12-19T12:52:55Z</time>
      </trkpt>
      <trkpt lat="43.65421" lon="3.82753">
        <ele>125.1</ele>
        <time>2021-12-19T12:53:05Z</time>
      </trkpt>
      <trkpt lat="43.65382" lon="3.82725">
        <ele>125.7</ele>
        <time>2021-12-19T12:53:15Z</time>
      </trkpt>
      <trkpt lat="43.65344" lon="3.82707">
        <ele>123.8</ele>
        <time>2021-12-19T12:53:25Z</time>
      </trkpt>
      <trkpt lat="43.65307" lon="3.82681">
        <ele>123.4</ele>
        <time>2021-12-19T12:53:35Z</time>
      </trkpt>
      <trkpt lat="43.6527" lon="3.82653">
        <ele>122.8</ele>
        <time>2021-12-19T12:53:45Z</time>
      </trkpt>
      <trkpt lat="43.65236" lon="3.82639">
        <ele>122.5</ele>
        <time>2021-12-19T12:53:55Z</time>
      </trkpt>
      <trkpt lat="43.65229" lon="3.82656">
        <ele>122.9</ele>
        <time>2021-12-19T12:54:15Z</time>
      </trkpt>
      <trkpt lat="43.652" lon="3.82649">
        <ele>122.4</ele>
        <time>2021-12-19T12:54:35Z</time>
      </trkpt>
      <trkpt lat="43.65167" lon="3.82619">
        <ele>121.6</ele>
        <time>2021-12-19T12:54:45Z</time>
      </trkpt>
      <trkpt lat="43.65133" lon="3.82596">
        <ele>120.4</ele>
        <time>2021-12-19T12:54:55Z</time>
      </trkpt>
      <trkpt lat="43.65101" lon="3.82566">
        <ele>119.6</ele>
        <time>2021-12-19T12:55:05Z</time>
      </trkpt>
      <trkpt lat="43.65077" lon="3.82549">
        <ele>118.8</ele>
        <time>2021-12-19T12:55:45Z</time>
      </trkpt>
      <trkpt lat="43.65044" lon="3.82525">
        <ele>117.7</ele>
        <time>2021-12-19T12:56:05Z</time>
      </trkpt>
      <trkpt lat="43.65011" lon="3.8249">
        <ele>116.4</ele>
        <time>2021-12-19T12:56:15Z</time>
      </trkpt>
      <trkpt lat="43.64969" lon="3.82446">
        <ele>112.7</ele>
        <time>2021-12-19T12:56:25Z</time>
      </trkpt>
      <trkpt lat="43.64914" lon="3.82462">
        <ele>109.6</ele>
        <time>2021-12-19T12:56:35Z</time>
      </trkpt>
      <trkpt lat="43.64874" lon="3.82421">
        <ele>107.2</ele>
        <time>2021-12-19T12:56:45Z</time>
      </trkpt>
      <trkpt lat="43.64819" lon="3.8242">
        <ele>105.1</ele>
        <time>2021-12-19T12:56:55Z</time>
      </trkpt>
      <trkpt lat="43.64761" lon="3.8243">
        <ele>102.9</ele>
        <time>2021-12-19T12:57:05Z</time>
      </trkpt>
      <trkpt lat="43.64708" lon="3.82421">
        <ele>101.1</ele>
        <time>2021-12-19T12:57:15Z</time>
      </trkpt>
      <trkpt lat="43.64666" lon="3.82394">
        <ele>100.2</ele>
        <time>2021-12-19T12:57:25Z</time>
      </trkpt>
      <trkpt lat="43.64625" lon="3.82359">
        <ele>99.9</ele>
        <time>2021-12-19T12:57:35Z</time>
      </trkpt>
      <trkpt lat="43.64583" lon="3.82329">
        <ele>100.3</ele>
        <time>2021-12-19T12:57:45Z</time>
      </trkpt>
      <trkpt lat="43.64545" lon="3.8231">
        <ele>101.4</ele>
        <time>2021-12-19T12:57:55Z</time>
      </trkpt>
      <trkpt lat="43.64505" lon="3.82301">
        <ele>100</ele>
        <time>2021-12-19T12:58:05Z</time>
      </trkpt>
      <trkpt lat="43.64467" lon="3.82283">
        <ele>98</ele>
        <time>2021-12-19T12:58:15Z</time>
      </trkpt>
      <trkpt lat="43.64433" lon="3.82254">
        <ele>98.1</ele>
        <time>2021-12-19T12:58:25Z</time>
      </trkpt>
      <trkpt lat="43.6439" lon="3.82262">
        <ele>98</ele>
        <time>2021-12-19T12:58:35Z</time>
      </trkpt>
      <trkpt lat="43.64352" lon="3.82274">
        <ele>98.4</ele>
        <time>2021-12-19T12:58:45Z</time>
      </trkpt>
      <trkpt lat="43.64321" lon="3.82294">
        <ele>98.6</ele>
        <time>2021-12-19T12:58:55Z</time>
      </trkpt>
      <trkpt lat="43.64286" lon="3.82308">
        <ele>98.6</ele>
        <time>2021-12-19T12:59:05Z</time>
      </trkpt>
      <trkpt lat="43.64252" lon="3.82302">
        <ele>100.3</ele>
        <time>2021-12-19T12:59:15Z</time>
      </trkpt>
      <trkpt lat="43.64233" lon="3.82302">
        <ele>101.5</ele>
        <time>2021-12-19T12:59:25Z</time>
      </trkpt>
      <trkpt lat="43.64245" lon="3.82304">
        <ele>100.5</ele>
        <time>2021-12-19T12:59:45Z</time>
      </trkpt>
      <trkpt lat="43.64267" lon="3.8231">
        <ele>99.3</ele>
        <time>2021-12-19T13:00:05Z</time>
      </trkpt>
      <trkpt lat="43.64294" lon="3.82297">
        <ele>99.2</ele>
        <time>2021-12-19T13:00:15Z</time>
      </trkpt>
      <trkpt lat="43.64324" lon="3.82293">
        <ele>98.6</ele>
        <time>2021-12-19T13:00:25Z</time>
      </trkpt>
      <trkpt lat="43.64335" lon="3.8231">
        <ele>97.9</ele>
        <time>2021-12-19T13:00:35Z</time>
      </trkpt>
      <trkpt lat="43.64313" lon="3.82359">
        <ele>96.8</ele>
        <time>2021-12-19T13:00:45Z</time>
      </trkpt>
      <trkpt lat="43.64303" lon="3.82401">
        <ele>95.7</ele>
        <time>2021-12-19T13:00:55Z</time>
      </trkpt>
      <trkpt lat="43.64297" lon="3.82389">
        <ele>96.6</ele>
        <time>2021-12-19T13:01:05Z</time>
      </trkpt>
      <trkpt lat="43.64271" lon="3.82437">
        <ele>95.2</ele>
        <time>2021-12-19T13:01:15Z</time>
      </trkpt>
      <trkpt lat="43.64248" lon="3.82495">
        <ele>93.7</ele>
        <time>2021-12-19T13:01:25Z</time>
      </trkpt>
      <trkpt lat="43.6422" lon="3.8255">
        <ele>93.5</ele>
        <time>2021-12-19T13:01:35Z</time>
      </trkpt>
      <trkpt lat="43.64186" lon="3.82604">
        <ele>91.5</ele>
        <time>2021-12-19T13:01:45Z</time>
      </trkpt>
      <trkpt lat="43.64153" lon="3.82649">
        <ele>89.8</ele>
        <time>2021-12-19T13:01:55Z</time>
      </trkpt>
      <trkpt lat="43.64113" lon="3.82694">
        <ele>88</ele>
        <time>2021-12-19T13:02:05Z</time>
      </trkpt>
      <trkpt lat="43.64063" lon="3.82739">
        <ele>85.4</ele>
        <time>2021-12-19T13:02:15Z</time>
      </trkpt>
      <trkpt lat="43.64018" lon="3.82777">
        <ele>83.4</ele>
        <time>2021-12-19T13:02:25Z</time>
      </trkpt>
      <trkpt lat="43.63978" lon="3.82793">
        <ele>80.8</ele>
        <time>2021-12-19T13:02:35Z</time>
      </trkpt>
      <trkpt lat="43.63944" lon="3.82813">
        <ele>79</ele>
        <time>2021-12-19T13:02:45Z</time>
      </trkpt>
      <trkpt lat="43.63913" lon="3.82827">
        <ele>78.2</ele>
        <time>2021-12-19T13:02:55Z</time>
      </trkpt>
      <trkpt lat="43.63898" lon="3.828">
        <ele>79.2</ele>
        <time>2021-12-19T13:03:15Z</time>
      </trkpt>
      <trkpt lat="43.63875" lon="3.82779">
        <ele>79.5</ele>
        <time>2021-12-19T13:03:25Z</time>
      </trkpt>
      <trkpt lat="43.63836" lon="3.82794">
        <ele>78</ele>
        <time>2021-12-19T13:03:35Z</time>
      </trkpt>
      <trkpt lat="43.63805" lon="3.82806">
        <ele>77</ele>
        <time>2021-12-19T13:03:45Z</time>
      </trkpt>
      <trkpt lat="43.63774" lon="3.82812">
        <ele>75.8</ele>
        <time>2021-12-19T13:03:55Z</time>
      </trkpt>
      <trkpt lat="43.63748" lon="3.82771">
        <ele>77.3</ele>
        <time>2021-12-19T13:04:05Z</time>
      </trkpt>
      <trkpt lat="43.6372" lon="3.82757">
        <ele>78.8</ele>
        <time>2021-12-19T13:04:15Z</time>
      </trkpt>
      <trkpt lat="43.63681" lon="3.82767">
        <ele>78.8</ele>
        <time>2021-12-19T13:04:25Z</time>
      </trkpt>
      <trkpt lat="43.63648" lon="3.82768">
        <ele>78.5</ele>
        <time>2021-12-19T13:04:35Z</time>
      </trkpt>
      <trkpt lat="43.63643" lon="3.82732">
        <ele>80.4</ele>
        <time>2021-12-19T13:04:45Z</time>
      </trkpt>
      <trkpt lat="43.63643" lon="3.82706">
        <ele>82.4</ele>
        <time>2021-12-19T13:04:55Z</time>
      </trkpt>
      <trkpt lat="43.63643" lon="3.82682">
        <ele>84.2</ele>
        <time>2021-12-19T13:05:05Z</time>
      </trkpt>
      <trkpt lat="43.63643" lon="3.82656">
        <ele>85.7</ele>
        <time>2021-12-19T13:05:15Z</time>
      </trkpt>
      <trkpt lat="43.63642" lon="3.82625">
        <ele>87.2</ele>
        <time>2021-12-19T13:05:25Z</time>
      </trkpt>
      <trkpt lat="43.63644" lon="3.82596">
        <ele>88.6</ele>
        <time>2021-12-19T13:05:35Z</time>
      </trkpt>
      <trkpt lat="43.63644" lon="3.82566">
        <ele>89</ele>
        <time>2021-12-19T13:05:45Z</time>
      </trkpt>
      <trkpt lat="43.63643" lon="3.82532">
        <ele>89.7</ele>
        <time>2021-12-19T13:05:55Z</time>
      </trkpt>
      <trkpt lat="43.63637" lon="3.82493">
        <ele>91</ele>
        <time>2021-12-19T13:06:05Z</time>
      </trkpt>
      <trkpt lat="43.63618" lon="3.82489">
        <ele>91</ele>
        <time>2021-12-19T13:06:15Z</time>
      </trkpt>
      <trkpt lat="43.63595" lon="3.82492">
        <ele>90.8</ele>
        <time>2021-12-19T13:06:25Z</time>
      </trkpt>
      <trkpt lat="43.63569" lon="3.82499">
        <ele>90</ele>
        <time>2021-12-19T13:06:35Z</time>
      </trkpt>
      <trkpt lat="43.63552" lon="3.82532">
        <ele>89.7</ele>
        <time>2021-12-19T13:06:45Z</time>
      </trkpt>
      <trkpt lat="43.63521" lon="3.82539">
        <ele>88.8</ele>
        <time>2021-12-19T13:06:55Z</time>
      </trkpt>
      <trkpt lat="43.63485" lon="3.82543">
        <ele>87.2</ele>
        <time>2021-12-19T13:07:05Z</time>
      </trkpt>
      <trkpt lat="43.63452" lon="3.82546">
        <ele>85.2</ele>
        <time>2021-12-19T13:07:15Z</time>
      </trkpt>
      <trkpt lat="43.63423" lon="3.8255">
        <ele>82.5</ele>
        <time>2021-12-19T13:07:25Z</time>
      </trkpt>
      <trkpt lat="43.63386" lon="3.82556">
        <ele>80.8</ele>
        <time>2021-12-19T13:07:35Z</time>
      </trkpt>
      <trkpt lat="43.63345" lon="3.82574">
        <ele>78.8</ele>
        <time>2021-12-19T13:07:45Z</time>
      </trkpt>
      <trkpt lat="43.63313" lon="3.82598">
        <ele>79.6</ele>
        <time>2021-12-19T13:07:55Z</time>
      </trkpt>
      <trkpt lat="43.63284" lon="3.82622">
        <ele>80.4</ele>
        <time>2021-12-19T13:08:05Z</time>
      </trkpt>
      <trkpt lat="43.63259" lon="3.8265">
        <ele>81.6</ele>
        <time>2021-12-19T13:08:15Z</time>
      </trkpt>
      <trkpt lat="43.63236" lon="3.82682">
        <ele>82.1</ele>
        <time>2021-12-19T13:08:25Z</time>
      </trkpt>
      <trkpt lat="43.63215" lon="3.82719">
        <ele>82.5</ele>
        <time>2021-12-19T13:08:35Z</time>
      </trkpt>
      <trkpt lat="43.63195" lon="3.82754">
        <ele>83</ele>
        <time>2021-12-19T13:08:45Z</time>
      </trkpt>
      <trkpt lat="43.63172" lon="3.82796">
        <ele>80.6</ele>
        <time>2021-12-19T13:08:55Z</time>
      </trkpt>
      <trkpt lat="43.63147" lon="3.82846">
        <ele>75.4</ele>
        <time>2021-12-19T13:09:05Z</time>
      </trkpt>
      <trkpt lat="43.63132" lon="3.82876">
        <ele>72.4</ele>
        <time>2021-12-19T13:09:15Z</time>
      </trkpt>
      <trkpt lat="43.6311" lon="3.82915">
        <ele>73</ele>
        <time>2021-12-19T13:09:25Z</time>
      </trkpt>
      <trkpt lat="43.63094" lon="3.82948">
        <ele>77.4</ele>
        <time>2021-12-19T13:09:35Z</time>
      </trkpt>
      <trkpt lat="43.63084" lon="3.82967">
        <ele>78.8</ele>
        <time>2021-12-19T13:09:45Z</time>
      </trkpt>
      <trkpt lat="43.63073" lon="3.82984">
        <ele>79.7</ele>
        <time>2021-12-19T13:09:55Z</time>
      </trkpt>
      <trkpt lat="43.63057" lon="3.82999">
        <ele>80.9</ele>
        <time>2021-12-19T13:10:05Z</time>
      </trkpt>
      <trkpt lat="43.63042" lon="3.83022">
        <ele>81.4</ele>
        <time>2021-12-19T13:10:15Z</time>
      </trkpt>
      <trkpt lat="43.63025" lon="3.83046">
        <ele>82</ele>
        <time>2021-12-19T13:10:25Z</time>
      </trkpt>
      <trkpt lat="43.63007" lon="3.83079">
        <ele>82</ele>
        <time>2021-12-19T13:10:35Z</time>
      </trkpt>
      <trkpt lat="43.62996" lon="3.83114">
        <ele>81.2</ele>
        <time>2021-12-19T13:10:45Z</time>
      </trkpt>
      <trkpt lat="43.62967" lon="3.83107">
        <ele>82</ele>
        <time>2021-12-19T13:10:55Z</time>
      </trkpt>
      <trkpt lat="43.62936" lon="3.83096">
        <ele>82.1</ele>
        <time>2021-12-19T13:11:05Z</time>
      </trkpt>
      <trkpt lat="43.62903" lon="3.83091">
        <ele>82.6</ele>
        <time>2021-12-19T13:11:15Z</time>
      </trkpt>
      <trkpt lat="43.62871" lon="3.83084">
        <ele>83</ele>
        <time>2021-12-19T13:11:25Z</time>
      </trkpt>
      <trkpt lat="43.62839" lon="3.83086">
        <ele>83.9</ele>
        <time>2021-12-19T13:11:35Z</time>
      </trkpt>
      <trkpt lat="43.62807" lon="3.83091">
        <ele>84.3</ele>
        <time>2021-12-19T13:11:45Z</time>
      </trkpt>
      <trkpt lat="43.62775" lon="3.83097">
        <ele>85.6</ele>
        <time>2021-12-19T13:11:55Z</time>
      </trkpt>
      <trkpt lat="43.62745" lon="3.83107">
        <ele>86</ele>
        <time>2021-12-19T13:12:05Z</time>
      </trkpt>
      <trkpt lat="43.62712" lon="3.83124">
        <ele>85</ele>
        <time>2021-12-19T13:12:15Z</time>
      </trkpt>
      <trkpt lat="43.62672" lon="3.83154">
        <ele>82.6</ele>
        <time>2021-12-19T13:12:25Z</time>
      </trkpt>
      <trkpt lat="43.62636" lon="3.83187">
        <ele>80.9</ele>
        <time>2021-12-19T13:12:35Z</time>
      </trkpt>
      <trkpt lat="43.62593" lon="3.83229">
        <ele>79.3</ele>
        <time>2021-12-19T13:12:45Z</time>
      </trkpt>
      <trkpt lat="43.6256" lon="3.83277">
        <ele>78</ele>
        <time>2021-12-19T13:12:55Z</time>
      </trkpt>
      <trkpt lat="43.62537" lon="3.8334">
        <ele>76.7</ele>
        <time>2021-12-19T13:13:05Z</time>
      </trkpt>
      <trkpt lat="43.62515" lon="3.83406">
        <ele>75.8</ele>
        <time>2021-12-19T13:13:15Z</time>
      </trkpt>
    </trkseg>
  </trk>
</gpx>